PAC947 PANC-RJAA
Flight info
| Callsign | PAC947 |
|---|---|
| Flight time | 7h 25m |
| Altitude | 40000 |
| Route | NODLE R220 NIKLL/M084F400 R220 NIPPI/N0487F400 R220 NANAC Y810 OLDIV Y809 SUPOK |
| Aircraft | B77L/H-SDE1E2E3FGHIJ1J3J4J5M1P2RWXYZ/LB1D1 |
Departure
| Time | 2026-05-07 22:35 |
|---|---|
| Airport | Ted Stevens Anchorage International Airport (PANC) |
Arrival
| Time | 2026-05-08 06:01 |
|---|---|
| Airport | Narita International Airport (RJAA) |
| Time | Latitude | Longitude | Altitude | Speed | Heading |
|---|---|---|---|---|---|
| 2026-05-07 21:58 | 61.19782 | -150.00520 | 168 ft | 0 kts | 165° |
| 2026-05-07 22:22 | 61.19794 | -150.00526 | 168 ft | 2 kts | 173° |
| 2026-05-07 22:22 | 61.19809 | -150.00525 | 168 ft | 2 kts | 196° |
| 2026-05-07 22:22 | 61.19822 | -150.00513 | 168 ft | 2 kts | 215° |
| 2026-05-07 22:23 | 61.19833 | -150.00493 | 168 ft | 2 kts | 234° |
| 2026-05-07 22:23 | 61.19841 | -150.00467 | 168 ft | 1 kts | 252° |
| 2026-05-07 22:23 | 61.19840 | -150.00472 | 168 ft | 2 kts | 252° |
| 2026-05-07 22:23 | 61.19841 | -150.00519 | 168 ft | 3 kts | 277° |
| 2026-05-07 22:24 | 61.19843 | -150.00574 | 168 ft | 3 kts | 272° |
| 2026-05-07 22:24 | 61.19842 | -150.00623 | 168 ft | 3 kts | 256° |
| 2026-05-07 22:24 | 61.19834 | -150.00676 | 168 ft | 3 kts | 255° |
| 2026-05-07 22:24 | 61.19831 | -150.00700 | 168 ft | 0 kts | 256° |
| 2026-05-07 22:25 | 61.19831 | -150.00702 | 168 ft | 0 kts | 256° |
| 2026-05-07 22:26 | 61.19826 | -150.00737 | 168 ft | 7 kts | 255° |
| 2026-05-07 22:26 | 61.19809 | -150.00870 | 168 ft | 10 kts | 255° |
| 2026-05-07 22:27 | 61.19787 | -150.00964 | 168 ft | 6 kts | 217° |
| 2026-05-07 22:27 | 61.19719 | -150.00963 | 168 ft | 13 kts | 163° |
| 2026-05-07 22:27 | 61.19614 | -150.00902 | 168 ft | 18 kts | 165° |
| 2026-05-07 22:27 | 61.19475 | -150.00824 | 168 ft | 22 kts | 165° |
| 2026-05-07 22:28 | 61.19306 | -150.00728 | 168 ft | 27 kts | 165° |
| 2026-05-07 22:28 | 61.19113 | -150.00621 | 168 ft | 30 kts | 165° |
| 2026-05-07 22:28 | 61.18898 | -150.00501 | 168 ft | 31 kts | 164° |
| 2026-05-07 22:28 | 61.18693 | -150.00385 | 168 ft | 29 kts | 165° |
| 2026-05-07 22:29 | 61.18500 | -150.00278 | 168 ft | 28 kts | 165° |
| 2026-05-07 22:29 | 61.18317 | -150.00176 | 168 ft | 26 kts | 165° |
| 2026-05-07 22:29 | 61.18143 | -150.00078 | 168 ft | 27 kts | 165° |
| 2026-05-07 22:29 | 61.17945 | -149.99966 | 168 ft | 29 kts | 165° |
| 2026-05-07 22:30 | 61.17757 | -149.99861 | 168 ft | 27 kts | 165° |
| 2026-05-07 22:30 | 61.17575 | -149.99759 | 168 ft | 27 kts | 165° |
| 2026-05-07 22:30 | 61.17381 | -149.99651 | 168 ft | 29 kts | 165° |
| 2026-05-07 22:30 | 61.17200 | -149.99550 | 168 ft | 17 kts | 165° |
| 2026-05-07 22:31 | 61.17130 | -149.99471 | 168 ft | 11 kts | 116° |
| 2026-05-07 22:31 | 61.17125 | -149.99269 | 167 ft | 18 kts | 90° |
| 2026-05-07 22:31 | 61.17121 | -149.98959 | 167 ft | 22 kts | 94° |
| 2026-05-07 22:31 | 61.17117 | -149.98625 | 167 ft | 25 kts | 89° |
| 2026-05-07 22:32 | 61.17117 | -149.98206 | 167 ft | 32 kts | 90° |
| 2026-05-07 22:32 | 61.17117 | -149.97746 | 167 ft | 31 kts | 89° |
| 2026-05-07 22:32 | 61.17123 | -149.97308 | 167 ft | 29 kts | 86° |
| 2026-05-07 22:32 | 61.17126 | -149.96876 | 167 ft | 31 kts | 90° |
| 2026-05-07 22:33 | 61.17127 | -149.96439 | 167 ft | 29 kts | 89° |
| 2026-05-07 22:33 | 61.17127 | -149.96021 | 167 ft | 28 kts | 90° |
| 2026-05-07 22:33 | 61.17127 | -149.95618 | 167 ft | 27 kts | 90° |
| 2026-05-07 22:33 | 61.17128 | -149.95238 | 167 ft | 25 kts | 90° |
| 2026-05-07 22:34 | 61.17128 | -149.94943 | 167 ft | 11 kts | 90° |
| 2026-05-07 22:34 | 61.17079 | -149.94833 | 167 ft | 11 kts | 173° |
| 2026-05-07 22:34 | 61.17008 | -149.94890 | 167 ft | 11 kts | 226° |
| 2026-05-07 22:34 | 61.16981 | -149.95053 | 167 ft | 17 kts | 269° |
| 2026-05-07 22:35 | 61.16980 | -149.95741 | 167 ft | 83 kts | 269° |
| 2026-05-07 22:35 | 61.16978 | -149.97417 | 168 ft | 148 kts | 269° |
| 2026-05-07 22:35 | 61.16985 | -149.99817 | 478 ft | 172 kts | 269° |
| 2026-05-07 22:35 | 61.16964 | -150.02264 | 1211 ft | 176 kts | 262° |
| 2026-05-07 22:36 | 61.16835 | -150.04842 | 1830 ft | 188 kts | 265° |
| 2026-05-07 22:36 | 61.16770 | -150.07622 | 2284 ft | 202 kts | 266° |
| 2026-05-07 22:36 | 61.16718 | -150.10631 | 2859 ft | 219 kts | 266° |
| 2026-05-07 22:36 | 61.16662 | -150.13884 | 3559 ft | 233 kts | 266° |
| 2026-05-07 22:37 | 61.16601 | -150.17317 | 4216 ft | 249 kts | 266° |
| 2026-05-07 22:37 | 61.16534 | -150.21030 | 4924 ft | 264 kts | 266° |
| 2026-05-07 22:37 | 61.16465 | -150.24814 | 5810 ft | 270 kts | 265° |
| 2026-05-07 22:37 | 61.16665 | -150.28713 | 6704 ft | 280 kts | 288° |
| 2026-05-07 22:38 | 61.17600 | -150.32190 | 7658 ft | 285 kts | 303° |
| 2026-05-07 22:38 | 61.18760 | -150.35533 | 8636 ft | 287 kts | 304° |
| 2026-05-07 22:38 | 61.19934 | -150.38815 | 9563 ft | 289 kts | 304° |
| 2026-05-07 22:38 | 61.21138 | -150.42142 | 10401 ft | 294 kts | 304° |
| 2026-05-07 22:39 | 61.22393 | -150.45599 | 10927 ft | 310 kts | 304° |
| 2026-05-07 22:39 | 61.23645 | -150.49056 | 11452 ft | 324 kts | 304° |
| 2026-05-07 22:39 | 61.25015 | -150.52843 | 12083 ft | 340 kts | 304° |
| 2026-05-07 22:39 | 61.26015 | -150.55614 | 12542 ft | 351 kts | 304° |
| 2026-05-07 22:40 | 61.27491 | -150.59715 | 13190 ft | 365 kts | 304° |
| 2026-05-07 22:40 | 61.28852 | -150.64246 | 13873 ft | 375 kts | 292° |
| 2026-05-07 22:40 | 61.29657 | -150.69421 | 14823 ft | 379 kts | 277° |
| 2026-05-07 22:40 | 61.29847 | -150.74869 | 16044 ft | 378 kts | 268° |
| 2026-05-07 22:41 | 61.29822 | -150.80244 | 17347 ft | 377 kts | 266° |
| 2026-05-07 22:41 | 61.29781 | -150.85721 | 18564 ft | 379 kts | 266° |
| 2026-05-07 22:41 | 61.29738 | -150.91216 | 19614 ft | 383 kts | 266° |
| 2026-05-07 22:41 | 61.29691 | -150.96681 | 20598 ft | 389 kts | 266° |
| 2026-05-07 22:42 | 61.29640 | -151.02356 | 21633 ft | 392 kts | 266° |
| 2026-05-07 22:42 | 61.29587 | -151.08009 | 22605 ft | 396 kts | 266° |
| 2026-05-07 22:42 | 61.29530 | -151.13722 | 23531 ft | 400 kts | 266° |
| 2026-05-07 22:42 | 61.29470 | -151.19482 | 24417 ft | 404 kts | 266° |
| 2026-05-07 22:43 | 61.29406 | -151.25391 | 25259 ft | 409 kts | 266° |
| 2026-05-07 22:43 | 61.29339 | -151.31329 | 25991 ft | 415 kts | 266° |
| 2026-05-07 22:43 | 61.29268 | -151.37321 | 26712 ft | 421 kts | 266° |
| 2026-05-07 22:43 | 61.29243 | -151.39307 | 26961 ft | 423 kts | 266° |
| 2026-05-07 22:44 | 61.29200 | -151.42870 | 27401 ft | 426 kts | 266° |
| 2026-05-07 22:44 | 61.29120 | -151.49107 | 28177 ft | 431 kts | 266° |
| 2026-05-07 22:44 | 61.29037 | -151.55357 | 28945 ft | 436 kts | 266° |
| 2026-05-07 22:44 | 61.28950 | -151.61616 | 29718 ft | 439 kts | 266° |
| 2026-05-07 22:45 | 61.28860 | -151.67911 | 30589 ft | 439 kts | 266° |
| 2026-05-07 22:45 | 61.28766 | -151.74286 | 31364 ft | 435 kts | 266° |
| 2026-05-07 22:45 | 61.28669 | -151.80550 | 31935 ft | 435 kts | 266° |
| 2026-05-07 22:45 | 61.28565 | -151.86940 | 32336 ft | 440 kts | 266° |
| 2026-05-07 22:46 | 61.28456 | -151.93332 | 32756 ft | 446 kts | 266° |
| 2026-05-07 22:46 | 61.28339 | -151.99805 | 33217 ft | 449 kts | 266° |
| 2026-05-07 22:46 | 61.28276 | -152.06310 | 33761 ft | 451 kts | 270° |
| 2026-05-07 22:46 | 61.28335 | -152.12854 | 34438 ft | 451 kts | 270° |
| 2026-05-07 22:47 | 61.28392 | -152.19327 | 35075 ft | 451 kts | 270° |
| 2026-05-07 22:47 | 61.28440 | -152.25778 | 35669 ft | 452 kts | 270° |
| 2026-05-07 22:47 | 61.28480 | -152.32289 | 36214 ft | 453 kts | 270° |
| 2026-05-07 22:47 | 61.28514 | -152.38860 | 36690 ft | 455 kts | 270° |
| 2026-05-07 22:48 | 61.28542 | -152.45415 | 37159 ft | 456 kts | 270° |
| 2026-05-07 22:48 | 61.28565 | -152.51968 | 37561 ft | 458 kts | 270° |
| 2026-05-07 22:48 | 61.28583 | -152.58627 | 37970 ft | 460 kts | 270° |
| 2026-05-07 22:48 | 61.28597 | -152.65225 | 38392 ft | 462 kts | 270° |
| 2026-05-07 22:49 | 61.28608 | -152.71924 | 38857 ft | 462 kts | 270° |
| 2026-05-07 22:49 | 61.28614 | -152.78560 | 39324 ft | 461 kts | 270° |
| 2026-05-07 22:49 | 61.28618 | -152.85242 | 39704 ft | 461 kts | 270° |
| 2026-05-07 22:49 | 61.28618 | -152.91898 | 39900 ft | 465 kts | 270° |
| 2026-05-07 22:50 | 61.28614 | -152.98590 | 39915 ft | 464 kts | 270° |
| 2026-05-07 22:50 | 61.28596 | -153.11885 | 39887 ft | 461 kts | 270° |
| 2026-05-07 22:51 | 61.28565 | -153.25220 | 39847 ft | 462 kts | 270° |
| 2026-05-07 22:51 | 61.28521 | -153.38612 | 39835 ft | 462 kts | 270° |
| 2026-05-07 22:52 | 61.28464 | -153.51903 | 39829 ft | 463 kts | 270° |
| 2026-05-07 22:52 | 61.28394 | -153.65175 | 39897 ft | 463 kts | 269° |
| 2026-05-07 22:53 | 61.28310 | -153.78566 | 39956 ft | 463 kts | 269° |
| 2026-05-07 22:53 | 61.28214 | -153.91852 | 39907 ft | 462 kts | 269° |
| 2026-05-07 22:54 | 61.28104 | -154.05180 | 39859 ft | 464 kts | 269° |
| 2026-05-07 22:54 | 61.27982 | -154.18492 | 39834 ft | 463 kts | 269° |
| 2026-05-07 22:55 | 61.27845 | -154.31895 | 39836 ft | 462 kts | 269° |
| 2026-05-07 22:55 | 61.27696 | -154.45248 | 39912 ft | 464 kts | 269° |
| 2026-05-07 22:56 | 61.27535 | -154.58545 | 39969 ft | 462 kts | 269° |
| 2026-05-07 22:56 | 61.27360 | -154.71881 | 39994 ft | 463 kts | 268° |
| 2026-05-07 22:57 | 61.27172 | -154.85190 | 39999 ft | 463 kts | 268° |
| 2026-05-07 22:57 | 61.26970 | -154.98561 | 40010 ft | 464 kts | 268° |
| 2026-05-07 22:58 | 61.26756 | -155.11848 | 39989 ft | 464 kts | 268° |
| 2026-05-07 22:58 | 61.26528 | -155.25256 | 39987 ft | 465 kts | 269° |
| 2026-05-07 22:59 | 61.26286 | -155.38626 | 39997 ft | 465 kts | 269° |
| 2026-05-07 22:59 | 61.26032 | -155.52002 | 39990 ft | 464 kts | 269° |
| 2026-05-07 23:00 | 61.25764 | -155.65370 | 39996 ft | 465 kts | 268° |
| 2026-05-07 23:00 | 61.25483 | -155.78781 | 40002 ft | 467 kts | 268° |
| 2026-05-07 23:01 | 61.25186 | -155.92258 | 39994 ft | 465 kts | 268° |
| 2026-05-07 23:01 | 61.24953 | -156.05632 | 39985 ft | 465 kts | 271° |
| 2026-05-07 23:02 | 61.25067 | -156.18990 | 39995 ft | 466 kts | 272° |
| 2026-05-07 23:02 | 61.25161 | -156.32446 | 39997 ft | 466 kts | 272° |
| 2026-05-07 23:03 | 61.25227 | -156.45811 | 40000 ft | 465 kts | 272° |
| 2026-05-07 23:03 | 61.25274 | -156.59166 | 40010 ft | 467 kts | 272° |
| 2026-05-07 23:04 | 61.25303 | -156.72669 | 40007 ft | 467 kts | 271° |
| 2026-05-07 23:04 | 61.25318 | -156.86078 | 40017 ft | 467 kts | 271° |
| 2026-05-07 23:05 | 61.25318 | -156.99565 | 40014 ft | 467 kts | 271° |
| 2026-05-07 23:05 | 61.25305 | -157.13008 | 40014 ft | 466 kts | 271° |
| 2026-05-07 23:06 | 61.25278 | -157.26436 | 40012 ft | 467 kts | 271° |
| 2026-05-07 23:06 | 61.25237 | -157.39859 | 40008 ft | 467 kts | 271° |
| 2026-05-07 23:07 | 61.25183 | -157.53336 | 40018 ft | 467 kts | 271° |
| 2026-05-07 23:07 | 61.25116 | -157.66739 | 40016 ft | 467 kts | 270° |
| 2026-05-07 23:08 | 61.25036 | -157.80176 | 40017 ft | 466 kts | 270° |
| 2026-05-07 23:08 | 61.24942 | -157.93645 | 39978 ft | 467 kts | 270° |
| 2026-05-07 23:09 | 61.24835 | -158.07089 | 39953 ft | 466 kts | 270° |
| 2026-05-07 23:09 | 61.24715 | -158.20451 | 39968 ft | 467 kts | 270° |
| 2026-05-07 23:10 | 61.24581 | -158.33937 | 39983 ft | 466 kts | 270° |
| 2026-05-07 23:10 | 61.24434 | -158.47357 | 39967 ft | 465 kts | 271° |
| 2026-05-07 23:11 | 61.24274 | -158.60725 | 39978 ft | 464 kts | 271° |
| 2026-05-07 23:11 | 61.24102 | -158.74130 | 40011 ft | 467 kts | 270° |
| 2026-05-07 23:12 | 61.23914 | -158.87622 | 40028 ft | 465 kts | 270° |
| 2026-05-07 23:12 | 61.23714 | -159.01045 | 40034 ft | 467 kts | 270° |
| 2026-05-07 23:13 | 61.23502 | -159.14395 | 40040 ft | 465 kts | 270° |
| 2026-05-07 23:13 | 61.23275 | -159.27846 | 40046 ft | 464 kts | 270° |
| 2026-05-07 23:14 | 61.23037 | -159.41142 | 40042 ft | 466 kts | 270° |
| 2026-05-07 23:14 | 61.22785 | -159.54547 | 40026 ft | 464 kts | 270° |
| 2026-05-07 23:15 | 61.22518 | -159.68015 | 40028 ft | 466 kts | 269° |
| 2026-05-07 23:15 | 61.22238 | -159.81438 | 40027 ft | 466 kts | 269° |
| 2026-05-07 23:16 | 61.21948 | -159.94757 | 40020 ft | 465 kts | 269° |
| 2026-05-07 23:16 | 61.21640 | -160.08250 | 40026 ft | 467 kts | 269° |
| 2026-05-07 23:17 | 61.21321 | -160.21608 | 40045 ft | 466 kts | 269° |
| 2026-05-07 23:17 | 61.20989 | -160.35037 | 40050 ft | 467 kts | 269° |
| 2026-05-07 23:18 | 61.20643 | -160.48460 | 40057 ft | 466 kts | 269° |
| 2026-05-07 23:18 | 61.20284 | -160.61835 | 40059 ft | 467 kts | 269° |
| 2026-05-07 23:19 | 61.19910 | -160.75299 | 40058 ft | 466 kts | 269° |
| 2026-05-07 23:19 | 61.19527 | -160.88621 | 40048 ft | 466 kts | 269° |
| 2026-05-07 23:20 | 61.19129 | -161.01997 | 40054 ft | 467 kts | 269° |
| 2026-05-07 23:20 | 61.18717 | -161.15389 | 40068 ft | 466 kts | 269° |
| 2026-05-07 23:21 | 61.18288 | -161.28880 | 40068 ft | 468 kts | 269° |
| 2026-05-07 23:21 | 61.17850 | -161.42261 | 40063 ft | 466 kts | 269° |
| 2026-05-07 23:22 | 61.17399 | -161.55640 | 40078 ft | 468 kts | 269° |
| 2026-05-07 23:22 | 61.16931 | -161.69095 | 40092 ft | 468 kts | 268° |
| 2026-05-07 23:23 | 61.16450 | -161.82548 | 40082 ft | 467 kts | 268° |
| 2026-05-07 23:23 | 61.15956 | -161.95996 | 40081 ft | 468 kts | 268° |
| 2026-05-07 23:24 | 61.15452 | -162.09337 | 40090 ft | 467 kts | 268° |
| 2026-05-07 23:24 | 61.14934 | -162.22699 | 40098 ft | 467 kts | 268° |
| 2026-05-07 23:25 | 61.14403 | -162.36064 | 40096 ft | 467 kts | 268° |
| 2026-05-07 23:25 | 61.13859 | -162.49420 | 40096 ft | 468 kts | 268° |
| 2026-05-07 23:26 | 61.13301 | -162.62791 | 40091 ft | 468 kts | 268° |
| 2026-05-07 23:26 | 61.12726 | -162.76234 | 40095 ft | 470 kts | 267° |
| 2026-05-07 23:27 | 61.11800 | -162.96388 | 40089 ft | 470 kts | 263° |
| 2026-05-07 23:27 | 61.10245 | -163.09546 | 40098 ft | 472 kts | 257° |
| 2026-05-07 23:28 | 61.08486 | -163.22568 | 40100 ft | 474 kts | 257° |
| 2026-05-07 23:28 | 61.06687 | -163.35584 | 40108 ft | 473 kts | 257° |
| 2026-05-07 23:29 | 61.04869 | -163.48541 | 40110 ft | 473 kts | 257° |
| 2026-05-07 23:29 | 61.03025 | -163.61522 | 40113 ft | 473 kts | 257° |
| 2026-05-07 23:30 | 61.01160 | -163.74530 | 40125 ft | 472 kts | 256° |
| 2026-05-07 23:30 | 60.99295 | -163.87421 | 40129 ft | 473 kts | 256° |
| 2026-05-07 23:31 | 60.97399 | -164.00418 | 40135 ft | 473 kts | 256° |
| 2026-05-07 23:31 | 60.95511 | -164.13252 | 40133 ft | 473 kts | 256° |
| 2026-05-07 23:32 | 60.93596 | -164.26175 | 40126 ft | 474 kts | 256° |
| 2026-05-07 23:32 | 60.91659 | -164.39142 | 40115 ft | 474 kts | 256° |
| 2026-05-07 23:33 | 60.89718 | -164.52037 | 40112 ft | 473 kts | 256° |
| 2026-05-07 23:33 | 60.87762 | -164.64938 | 40108 ft | 474 kts | 256° |
| 2026-05-07 23:34 | 60.85801 | -164.77771 | 40106 ft | 474 kts | 255° |
| 2026-05-07 23:34 | 60.83825 | -164.90604 | 40111 ft | 473 kts | 255° |
| 2026-05-07 23:35 | 60.81833 | -165.03447 | 40122 ft | 473 kts | 255° |
| 2026-05-07 23:35 | 60.79836 | -165.16226 | 40122 ft | 474 kts | 255° |
| 2026-05-07 23:36 | 60.77821 | -165.29022 | 40125 ft | 475 kts | 255° |
| 2026-05-07 23:36 | 60.75791 | -165.41821 | 40138 ft | 475 kts | 255° |
| 2026-05-07 23:37 | 60.73749 | -165.54607 | 40130 ft | 475 kts | 255° |
| 2026-05-07 23:37 | 60.71687 | -165.67423 | 40129 ft | 475 kts | 254° |
| 2026-05-07 23:38 | 60.69620 | -165.80179 | 40135 ft | 476 kts | 254° |
| 2026-05-07 23:38 | 60.67553 | -165.92839 | 40142 ft | 476 kts | 254° |
| 2026-05-07 23:39 | 60.65456 | -166.05595 | 40141 ft | 476 kts | 254° |
| 2026-05-07 23:39 | 60.63345 | -166.18350 | 40142 ft | 477 kts | 254° |
| 2026-05-07 23:40 | 60.61226 | -166.31061 | 40138 ft | 477 kts | 254° |
| 2026-05-07 23:40 | 60.59088 | -166.43796 | 40145 ft | 477 kts | 254° |
| 2026-05-07 23:41 | 60.56939 | -166.56506 | 40143 ft | 477 kts | 254° |
| 2026-05-07 23:41 | 60.54775 | -166.69218 | 40146 ft | 477 kts | 253° |
| 2026-05-07 23:42 | 60.52611 | -166.81847 | 40148 ft | 477 kts | 253° |
| 2026-05-07 23:42 | 60.50416 | -166.94562 | 40143 ft | 477 kts | 253° |
| 2026-05-07 23:43 | 60.48219 | -167.07207 | 40148 ft | 478 kts | 253° |
| 2026-05-07 23:43 | 60.46009 | -167.19836 | 40154 ft | 478 kts | 253° |
| 2026-05-07 23:44 | 60.43783 | -167.32477 | 40146 ft | 478 kts | 253° |
| 2026-05-07 23:44 | 60.41554 | -167.45046 | 40144 ft | 478 kts | 253° |
| 2026-05-07 23:45 | 60.39305 | -167.57645 | 40146 ft | 479 kts | 253° |
| 2026-05-07 23:45 | 60.37038 | -167.70261 | 40148 ft | 479 kts | 252° |
| 2026-05-07 23:46 | 60.34770 | -167.82797 | 40146 ft | 479 kts | 252° |
| 2026-05-07 23:46 | 60.32470 | -167.95427 | 40147 ft | 479 kts | 252° |
| 2026-05-07 23:47 | 60.30187 | -168.07922 | 40141 ft | 479 kts | 252° |
| 2026-05-07 23:47 | 60.27927 | -168.20519 | 40144 ft | 479 kts | 252° |
| 2026-05-07 23:48 | 60.25669 | -168.33029 | 40147 ft | 479 kts | 252° |
| 2026-05-07 23:48 | 60.23383 | -168.45604 | 40145 ft | 480 kts | 252° |
| 2026-05-07 23:49 | 60.21088 | -168.58134 | 40145 ft | 480 kts | 252° |
| 2026-05-07 23:49 | 60.18781 | -168.70650 | 40146 ft | 480 kts | 251° |
| 2026-05-07 23:50 | 60.16455 | -168.83186 | 40155 ft | 481 kts | 251° |
| 2026-05-07 23:50 | 60.14116 | -168.95708 | 40153 ft | 481 kts | 251° |
| 2026-05-07 23:51 | 60.11772 | -169.08177 | 40155 ft | 480 kts | 251° |
| 2026-05-07 23:51 | 60.09427 | -169.20572 | 40154 ft | 481 kts | 251° |
| 2026-05-07 23:52 | 60.07045 | -169.33081 | 40163 ft | 481 kts | 251° |
| 2026-05-07 23:52 | 60.04671 | -169.45467 | 40157 ft | 481 kts | 251° |
| 2026-05-07 23:53 | 60.02270 | -169.57916 | 40152 ft | 481 kts | 251° |
| 2026-05-07 23:53 | 59.99850 | -169.70384 | 40157 ft | 481 kts | 250° |
| 2026-05-07 23:54 | 59.97430 | -169.82779 | 40157 ft | 481 kts | 250° |
| 2026-05-07 23:54 | 59.95014 | -169.95071 | 40156 ft | 481 kts | 250° |
| 2026-05-07 23:55 | 59.92563 | -170.07466 | 40155 ft | 481 kts | 250° |
| 2026-05-07 23:55 | 59.90117 | -170.19757 | 40154 ft | 481 kts | 250° |
| 2026-05-07 23:56 | 59.87641 | -170.32126 | 40148 ft | 481 kts | 250° |
| 2026-05-07 23:56 | 59.85169 | -170.44402 | 40150 ft | 482 kts | 250° |
| 2026-05-07 23:57 | 59.82670 | -170.56728 | 40150 ft | 481 kts | 250° |
| 2026-05-07 23:57 | 59.80180 | -170.68938 | 40146 ft | 482 kts | 249° |
| 2026-05-07 23:58 | 59.77655 | -170.81245 | 40150 ft | 481 kts | 249° |
| 2026-05-07 23:58 | 59.75138 | -170.93445 | 40148 ft | 482 kts | 249° |
| 2026-05-07 23:59 | 59.72608 | -171.05629 | 40148 ft | 482 kts | 249° |
| 2026-05-07 23:59 | 59.70047 | -171.17891 | 40149 ft | 482 kts | 249° |
| 2026-05-08 00:00 | 59.67483 | -171.30095 | 40147 ft | 483 kts | 249° |
| 2026-05-08 00:00 | 59.64908 | -171.42278 | 40152 ft | 482 kts | 249° |
| 2026-05-08 00:01 | 59.62327 | -171.54414 | 40143 ft | 482 kts | 249° |
| 2026-05-08 00:01 | 59.59730 | -171.66559 | 40146 ft | 482 kts | 248° |
| 2026-05-08 00:02 | 59.57120 | -171.78690 | 40147 ft | 482 kts | 248° |
| 2026-05-08 00:02 | 59.54503 | -171.90784 | 40150 ft | 482 kts | 248° |
| 2026-05-08 00:03 | 59.52019 | -172.02918 | 40161 ft | 482 kts | 249° |
| 2026-05-08 00:03 | 59.49542 | -172.15111 | 40165 ft | 481 kts | 249° |
| 2026-05-08 00:04 | 59.47048 | -172.27286 | 40162 ft | 481 kts | 249° |
| 2026-05-08 00:04 | 59.44552 | -172.39381 | 40165 ft | 482 kts | 249° |
| 2026-05-08 00:05 | 59.42022 | -172.51558 | 40164 ft | 481 kts | 249° |
| 2026-05-08 00:05 | 59.39496 | -172.63640 | 40164 ft | 481 kts | 249° |
| 2026-05-08 00:06 | 59.36974 | -172.75632 | 40161 ft | 481 kts | 248° |
| 2026-05-08 00:06 | 59.34417 | -172.87711 | 40165 ft | 480 kts | 248° |
| 2026-05-08 00:07 | 59.31853 | -172.99759 | 40164 ft | 480 kts | 248° |
| 2026-05-08 00:07 | 59.29287 | -173.11742 | 40154 ft | 481 kts | 248° |
| 2026-05-08 00:08 | 59.26709 | -173.23714 | 40146 ft | 481 kts | 248° |
| 2026-05-08 00:08 | 59.24109 | -173.35716 | 40141 ft | 482 kts | 248° |
| 2026-05-08 00:09 | 59.21502 | -173.47684 | 40137 ft | 482 kts | 248° |
| 2026-05-08 00:09 | 59.18869 | -173.59697 | 40139 ft | 482 kts | 248° |
| 2026-05-08 00:10 | 59.16249 | -173.71587 | 40139 ft | 481 kts | 247° |
| 2026-05-08 00:10 | 59.13605 | -173.83519 | 40139 ft | 482 kts | 247° |
| 2026-05-08 00:11 | 59.10945 | -173.95454 | 40132 ft | 483 kts | 247° |
| 2026-05-08 00:11 | 59.08265 | -174.07410 | 40133 ft | 484 kts | 247° |
| 2026-05-08 00:12 | 59.05587 | -174.19289 | 40132 ft | 483 kts | 247° |
| 2026-05-08 00:12 | 59.02957 | -174.31262 | 40134 ft | 482 kts | 248° |
| 2026-05-08 00:13 | 59.00376 | -174.43156 | 40129 ft | 481 kts | 248° |
| 2026-05-08 00:13 | 58.97773 | -174.55061 | 40130 ft | 482 kts | 248° |
| 2026-05-08 00:14 | 58.95152 | -174.66971 | 40130 ft | 483 kts | 247° |
| 2026-05-08 00:14 | 58.92520 | -174.78853 | 40131 ft | 483 kts | 247° |
| 2026-05-08 00:15 | 58.89867 | -174.90759 | 40129 ft | 483 kts | 247° |
| 2026-05-08 00:15 | 58.87219 | -175.02579 | 40128 ft | 483 kts | 247° |
| 2026-05-08 00:16 | 58.84550 | -175.14423 | 40126 ft | 481 kts | 246° |
| 2026-05-08 00:16 | 58.81879 | -175.26210 | 40124 ft | 483 kts | 246° |
| 2026-05-08 00:17 | 58.79180 | -175.38051 | 40123 ft | 484 kts | 246° |
| 2026-05-08 00:17 | 58.76474 | -175.49861 | 40122 ft | 483 kts | 246° |
| 2026-05-08 00:18 | 58.73758 | -175.61649 | 40120 ft | 484 kts | 246° |
| 2026-05-08 00:18 | 58.71031 | -175.73415 | 40118 ft | 482 kts | 246° |
| 2026-05-08 00:19 | 58.68286 | -175.85196 | 40118 ft | 483 kts | 245° |
| 2026-05-08 00:19 | 58.65549 | -175.96878 | 40115 ft | 483 kts | 245° |
| 2026-05-08 00:20 | 58.62806 | -176.08525 | 40118 ft | 482 kts | 245° |
| 2026-05-08 00:20 | 58.60027 | -176.20261 | 40119 ft | 483 kts | 245° |
| 2026-05-08 00:21 | 58.57259 | -176.31883 | 40117 ft | 482 kts | 245° |
| 2026-05-08 00:21 | 58.54488 | -176.43459 | 40118 ft | 483 kts | 245° |
| 2026-05-08 00:22 | 58.51684 | -176.55109 | 40117 ft | 481 kts | 245° |
| 2026-05-08 00:22 | 58.48888 | -176.66667 | 40111 ft | 481 kts | 244° |
| 2026-05-08 00:23 | 58.46092 | -176.78160 | 40113 ft | 481 kts | 244° |
| 2026-05-08 00:23 | 58.43271 | -176.89697 | 40111 ft | 480 kts | 244° |
| 2026-05-08 00:24 | 58.40449 | -177.01180 | 40110 ft | 478 kts | 244° |
| 2026-05-08 00:24 | 58.37620 | -177.12630 | 40107 ft | 478 kts | 244° |
| 2026-05-08 00:25 | 58.34796 | -177.24057 | 40102 ft | 479 kts | 244° |
| 2026-05-08 00:25 | 58.31973 | -177.35423 | 40098 ft | 480 kts | 244° |
| 2026-05-08 00:26 | 58.29123 | -177.46838 | 40094 ft | 479 kts | 244° |
| 2026-05-08 00:26 | 58.26267 | -177.58215 | 40088 ft | 479 kts | 244° |
| 2026-05-08 00:27 | 58.23396 | -177.69597 | 40079 ft | 478 kts | 243° |
| 2026-05-08 00:27 | 58.20536 | -177.80873 | 40075 ft | 478 kts | 243° |
| 2026-05-08 00:28 | 58.17671 | -177.92111 | 40066 ft | 476 kts | 243° |
| 2026-05-08 00:28 | 58.14787 | -178.03372 | 40059 ft | 477 kts | 243° |
| 2026-05-08 00:29 | 58.11900 | -178.14584 | 40057 ft | 477 kts | 243° |
| 2026-05-08 00:29 | 58.08993 | -178.25813 | 40055 ft | 477 kts | 243° |
| 2026-05-08 00:30 | 58.06088 | -178.36984 | 40053 ft | 477 kts | 243° |
| 2026-05-08 00:30 | 58.03149 | -178.48230 | 40049 ft | 477 kts | 242° |
| 2026-05-08 00:31 | 58.00217 | -178.59387 | 40050 ft | 477 kts | 242° |
| 2026-05-08 00:31 | 57.97292 | -178.70468 | 40047 ft | 477 kts | 241° |
| 2026-05-08 00:32 | 57.94322 | -178.81662 | 40045 ft | 476 kts | 241° |
| 2026-05-08 00:32 | 57.91376 | -178.92709 | 40042 ft | 476 kts | 241° |
| 2026-05-08 00:33 | 57.88403 | -179.03807 | 40043 ft | 476 kts | 241° |
| 2026-05-08 00:33 | 57.85434 | -179.14833 | 40036 ft | 477 kts | 241° |
| 2026-05-08 00:34 | 57.82431 | -179.25934 | 40035 ft | 477 kts | 241° |
| 2026-05-08 00:34 | 57.79433 | -179.36961 | 40032 ft | 477 kts | 241° |
| 2026-05-08 00:35 | 57.76413 | -179.48013 | 40023 ft | 478 kts | 241° |
| 2026-05-08 00:35 | 57.73403 | -179.58978 | 40028 ft | 478 kts | 240° |
| 2026-05-08 00:36 | 57.70361 | -179.70004 | 40021 ft | 477 kts | 240° |
| 2026-05-08 00:36 | 57.67303 | -179.81035 | 40018 ft | 478 kts | 240° |
| 2026-05-08 00:37 | 57.64253 | -179.91986 | 40010 ft | 477 kts | 240° |
| 2026-05-08 00:38 | 57.59655 | 179.91606 | 40025 ft | 478 kts | 239° |
| 2026-05-08 00:38 | 57.56572 | 179.80666 | 40019 ft | 478 kts | 239° |
| 2026-05-08 00:39 | 57.53499 | 179.69817 | 39994 ft | 478 kts | 239° |
| 2026-05-08 00:39 | 57.50407 | 179.58949 | 40010 ft | 478 kts | 239° |
| 2026-05-08 00:40 | 57.47294 | 179.48062 | 40006 ft | 478 kts | 240° |
| 2026-05-08 00:40 | 57.44163 | 179.37163 | 39995 ft | 478 kts | 239° |
| 2026-05-08 00:41 | 57.41054 | 179.26387 | 39994 ft | 478 kts | 239° |
| 2026-05-08 00:41 | 57.37895 | 179.15494 | 39989 ft | 479 kts | 239° |
| 2026-05-08 00:42 | 57.34751 | 179.04698 | 39972 ft | 477 kts | 238° |
| 2026-05-08 00:42 | 57.31612 | 178.93976 | 39971 ft | 478 kts | 238° |
| 2026-05-08 00:43 | 57.28456 | 178.83240 | 39970 ft | 476 kts | 238° |
| 2026-05-08 00:43 | 57.25294 | 178.72537 | 39968 ft | 478 kts | 238° |
| 2026-05-08 00:44 | 57.22112 | 178.61812 | 39961 ft | 478 kts | 239° |
| 2026-05-08 00:44 | 57.18912 | 178.51079 | 39963 ft | 479 kts | 239° |
| 2026-05-08 00:45 | 57.15730 | 178.40451 | 39967 ft | 479 kts | 239° |
| 2026-05-08 00:45 | 57.12517 | 178.29771 | 39948 ft | 477 kts | 238° |
| 2026-05-08 00:46 | 57.09288 | 178.19087 | 39949 ft | 478 kts | 238° |
| 2026-05-08 00:46 | 57.06072 | 178.08491 | 39963 ft | 478 kts | 238° |
| 2026-05-08 00:47 | 57.02844 | 177.97905 | 39958 ft | 477 kts | 238° |
| 2026-05-08 00:47 | 56.99600 | 177.87315 | 39951 ft | 478 kts | 238° |
| 2026-05-08 00:48 | 56.96350 | 177.76755 | 39956 ft | 478 kts | 238° |
| 2026-05-08 00:48 | 56.93090 | 177.66209 | 39939 ft | 479 kts | 238° |
| 2026-05-08 00:49 | 56.89820 | 177.55675 | 39951 ft | 478 kts | 238° |
| 2026-05-08 00:49 | 56.86539 | 177.45157 | 39954 ft | 478 kts | 238° |
| 2026-05-08 00:50 | 56.83258 | 177.34680 | 39944 ft | 479 kts | 237° |
| 2026-05-08 00:50 | 56.79931 | 177.24153 | 39929 ft | 478 kts | 237° |
| 2026-05-08 00:51 | 56.76605 | 177.13686 | 39934 ft | 479 kts | 237° |
| 2026-05-08 00:51 | 56.73264 | 177.03217 | 39932 ft | 479 kts | 237° |
| 2026-05-08 00:52 | 56.69920 | 176.92780 | 39929 ft | 479 kts | 237° |
| 2026-05-08 00:52 | 56.66587 | 176.82426 | 39928 ft | 480 kts | 237° |
| 2026-05-08 00:53 | 56.63216 | 176.71997 | 39913 ft | 479 kts | 237° |
| 2026-05-08 00:53 | 56.59826 | 176.61557 | 39928 ft | 480 kts | 237° |
| 2026-05-08 00:54 | 56.56460 | 176.51234 | 39913 ft | 479 kts | 237° |
| 2026-05-08 00:54 | 56.53066 | 176.40872 | 39917 ft | 479 kts | 237° |
| 2026-05-08 00:55 | 56.49673 | 176.30557 | 39899 ft | 478 kts | 236° |
| 2026-05-08 00:55 | 56.46293 | 176.20326 | 39905 ft | 479 kts | 236° |
| 2026-05-08 00:56 | 56.42866 | 176.09993 | 39912 ft | 478 kts | 236° |
| 2026-05-08 00:56 | 56.39467 | 175.99794 | 39918 ft | 479 kts | 236° |
| 2026-05-08 00:57 | 56.36026 | 175.89508 | 39906 ft | 478 kts | 236° |
| 2026-05-08 00:57 | 56.32613 | 175.79352 | 39905 ft | 477 kts | 236° |
| 2026-05-08 00:58 | 56.29171 | 175.69154 | 39901 ft | 479 kts | 236° |
| 2026-05-08 00:58 | 56.25702 | 175.58917 | 39906 ft | 478 kts | 236° |
| 2026-05-08 00:59 | 56.22258 | 175.48798 | 39902 ft | 479 kts | 236° |
| 2026-05-08 00:59 | 56.18789 | 175.38646 | 39896 ft | 479 kts | 237° |
| 2026-05-08 01:00 | 56.15311 | 175.28511 | 39894 ft | 477 kts | 236° |
| 2026-05-08 01:00 | 56.11829 | 175.18408 | 39895 ft | 478 kts | 235° |
| 2026-05-08 01:01 | 56.08349 | 175.08351 | 39906 ft | 477 kts | 236° |
| 2026-05-08 01:01 | 56.04863 | 174.98323 | 39900 ft | 478 kts | 236° |
| 2026-05-08 01:02 | 56.01380 | 174.88339 | 39886 ft | 477 kts | 236° |
| 2026-05-08 01:02 | 55.97862 | 174.78301 | 39874 ft | 477 kts | 236° |
| 2026-05-08 01:03 | 55.94339 | 174.68288 | 39874 ft | 479 kts | 236° |
| 2026-05-08 01:03 | 55.90820 | 174.58328 | 39870 ft | 477 kts | 236° |
| 2026-05-08 01:04 | 55.87281 | 174.48351 | 39870 ft | 476 kts | 236° |
| 2026-05-08 01:04 | 55.83772 | 174.38500 | 39869 ft | 475 kts | 236° |
| 2026-05-08 01:05 | 55.80236 | 174.28613 | 39874 ft | 476 kts | 235° |
| 2026-05-08 01:05 | 55.76697 | 174.18758 | 39876 ft | 475 kts | 235° |
| 2026-05-08 01:06 | 55.73148 | 174.08914 | 39875 ft | 474 kts | 236° |
| 2026-05-08 01:06 | 55.69607 | 173.99133 | 39878 ft | 474 kts | 236° |
| 2026-05-08 01:07 | 55.66051 | 173.89349 | 39876 ft | 474 kts | 236° |
| 2026-05-08 01:07 | 55.62486 | 173.79579 | 39871 ft | 474 kts | 236° |
| 2026-05-08 01:08 | 55.58935 | 173.69888 | 39868 ft | 474 kts | 236° |
| 2026-05-08 01:08 | 55.55363 | 173.60175 | 39868 ft | 473 kts | 236° |
| 2026-05-08 01:09 | 55.51793 | 173.50508 | 39869 ft | 474 kts | 236° |
| 2026-05-08 01:09 | 55.48196 | 173.40807 | 39863 ft | 473 kts | 236° |
| 2026-05-08 01:10 | 55.44594 | 173.31130 | 39859 ft | 474 kts | 235° |
| 2026-05-08 01:10 | 55.41012 | 173.21542 | 39856 ft | 473 kts | 235° |
| 2026-05-08 01:11 | 55.37416 | 173.11958 | 39849 ft | 473 kts | 235° |
| 2026-05-08 01:11 | 55.33779 | 173.02301 | 39848 ft | 473 kts | 235° |
| 2026-05-08 01:12 | 55.30157 | 172.92720 | 39843 ft | 472 kts | 235° |
| 2026-05-08 01:12 | 55.26548 | 172.83211 | 39842 ft | 473 kts | 235° |
| 2026-05-08 01:13 | 55.22915 | 172.73675 | 39835 ft | 472 kts | 235° |
| 2026-05-08 01:13 | 55.19281 | 172.64175 | 39837 ft | 472 kts | 235° |
| 2026-05-08 01:14 | 55.15616 | 172.54631 | 39843 ft | 473 kts | 236° |
| 2026-05-08 01:14 | 55.11974 | 172.45183 | 39840 ft | 473 kts | 236° |
| 2026-05-08 01:15 | 55.08294 | 172.35673 | 39839 ft | 472 kts | 236° |
| 2026-05-08 01:15 | 55.04638 | 172.26262 | 39842 ft | 472 kts | 235° |
| 2026-05-08 01:16 | 55.00979 | 172.16876 | 39839 ft | 471 kts | 235° |
| 2026-05-08 01:16 | 54.97306 | 172.07494 | 39838 ft | 470 kts | 235° |
| 2026-05-08 01:17 | 54.93601 | 171.98178 | 39834 ft | 471 kts | 232° |
| 2026-05-08 01:17 | 54.89487 | 171.89293 | 39840 ft | 470 kts | 230° |
| 2026-05-08 01:18 | 54.85376 | 171.80568 | 39843 ft | 470 kts | 230° |
| 2026-05-08 01:18 | 54.81215 | 171.71782 | 39842 ft | 470 kts | 230° |
| 2026-05-08 01:19 | 54.77094 | 171.63119 | 39838 ft | 471 kts | 230° |
| 2026-05-08 01:19 | 54.72938 | 171.54419 | 39832 ft | 470 kts | 231° |
| 2026-05-08 01:20 | 54.68795 | 171.45776 | 39832 ft | 469 kts | 230° |
| 2026-05-08 01:20 | 54.64643 | 171.37148 | 39826 ft | 469 kts | 231° |
| 2026-05-08 01:21 | 54.60485 | 171.28537 | 39829 ft | 469 kts | 230° |
| 2026-05-08 01:21 | 54.56309 | 171.19919 | 39826 ft | 469 kts | 230° |
| 2026-05-08 01:22 | 54.52142 | 171.11351 | 39823 ft | 469 kts | 230° |
| 2026-05-08 01:22 | 54.47971 | 171.02805 | 39823 ft | 469 kts | 230° |
| 2026-05-08 01:23 | 54.43794 | 170.94273 | 39820 ft | 469 kts | 230° |
| 2026-05-08 01:23 | 54.39594 | 170.85727 | 39819 ft | 469 kts | 230° |
| 2026-05-08 01:24 | 54.35403 | 170.77231 | 39821 ft | 469 kts | 230° |
| 2026-05-08 01:24 | 54.31237 | 170.68811 | 39821 ft | 469 kts | 230° |
| 2026-05-08 01:25 | 54.27027 | 170.60332 | 39826 ft | 468 kts | 230° |
| 2026-05-08 01:25 | 54.22793 | 170.51836 | 39828 ft | 469 kts | 230° |
| 2026-05-08 01:26 | 54.18575 | 170.43399 | 39827 ft | 468 kts | 230° |
| 2026-05-08 01:26 | 54.14379 | 170.35037 | 39825 ft | 467 kts | 230° |
| 2026-05-08 01:27 | 54.10142 | 170.26621 | 39828 ft | 468 kts | 230° |
| 2026-05-08 01:27 | 54.05950 | 170.18321 | 39823 ft | 467 kts | 230° |
| 2026-05-08 01:28 | 54.01708 | 170.09952 | 39813 ft | 467 kts | 230° |
| 2026-05-08 01:28 | 53.97470 | 170.01619 | 39803 ft | 467 kts | 230° |
| 2026-05-08 01:29 | 53.93248 | 169.93347 | 39801 ft | 468 kts | 230° |
| 2026-05-08 01:29 | 53.88993 | 169.85036 | 39803 ft | 467 kts | 230° |
| 2026-05-08 01:30 | 53.84762 | 169.76802 | 39803 ft | 466 kts | 230° |
| 2026-05-08 01:30 | 53.80528 | 169.68588 | 39805 ft | 466 kts | 230° |
| 2026-05-08 01:31 | 53.76257 | 169.60332 | 39810 ft | 465 kts | 230° |
| 2026-05-08 01:31 | 53.72022 | 169.52170 | 39810 ft | 465 kts | 230° |
| 2026-05-08 01:32 | 53.67773 | 169.44011 | 39811 ft | 465 kts | 230° |
| 2026-05-08 01:32 | 53.63527 | 169.35828 | 39812 ft | 464 kts | 233° |
| 2026-05-08 01:33 | 53.60178 | 169.26579 | 39816 ft | 464 kts | 243° |
| 2026-05-08 01:33 | 53.57174 | 169.17072 | 39814 ft | 462 kts | 243° |
| 2026-05-08 01:34 | 53.54162 | 169.07619 | 39812 ft | 462 kts | 243° |
| 2026-05-08 01:34 | 53.51124 | 168.98154 | 39812 ft | 462 kts | 243° |
| 2026-05-08 01:35 | 53.48064 | 168.88676 | 39807 ft | 462 kts | 242° |
| 2026-05-08 01:35 | 53.45018 | 168.79283 | 39808 ft | 461 kts | 243° |
| 2026-05-08 01:36 | 53.41956 | 168.69884 | 39807 ft | 461 kts | 243° |
| 2026-05-08 01:36 | 53.38881 | 168.60483 | 39804 ft | 460 kts | 243° |
| 2026-05-08 01:37 | 53.35813 | 168.51140 | 39802 ft | 459 kts | 243° |
| 2026-05-08 01:37 | 53.32756 | 168.41864 | 39803 ft | 459 kts | 243° |
| 2026-05-08 01:38 | 53.29671 | 168.32544 | 39803 ft | 459 kts | 242° |
| 2026-05-08 01:38 | 53.26579 | 168.23268 | 39804 ft | 459 kts | 242° |
| 2026-05-08 01:39 | 53.23479 | 168.14004 | 39801 ft | 459 kts | 242° |
| 2026-05-08 01:39 | 53.20361 | 168.04718 | 39801 ft | 459 kts | 242° |
| 2026-05-08 01:40 | 53.17245 | 167.95476 | 39797 ft | 459 kts | 242° |
| 2026-05-08 01:40 | 53.14145 | 167.86313 | 39794 ft | 457 kts | 242° |
| 2026-05-08 01:41 | 53.11018 | 167.77104 | 39794 ft | 457 kts | 242° |
| 2026-05-08 01:41 | 53.07896 | 167.67944 | 39793 ft | 457 kts | 242° |
| 2026-05-08 01:42 | 53.04765 | 167.58794 | 39796 ft | 456 kts | 242° |
| 2026-05-08 01:42 | 53.01654 | 167.49733 | 39799 ft | 456 kts | 242° |
| 2026-05-08 01:43 | 52.98512 | 167.40617 | 39800 ft | 454 kts | 243° |
| 2026-05-08 01:43 | 52.95391 | 167.31593 | 39803 ft | 455 kts | 242° |
| 2026-05-08 01:44 | 52.92250 | 167.22546 | 39801 ft | 455 kts | 242° |
| 2026-05-08 01:44 | 52.89090 | 167.13478 | 39805 ft | 453 kts | 242° |
| 2026-05-08 01:45 | 52.85923 | 167.04421 | 39805 ft | 454 kts | 242° |
| 2026-05-08 01:45 | 52.82796 | 166.95511 | 39797 ft | 453 kts | 242° |
| 2026-05-08 01:46 | 52.79629 | 166.86520 | 39787 ft | 452 kts | 242° |
| 2026-05-08 01:46 | 52.76476 | 166.77600 | 39783 ft | 453 kts | 242° |
| 2026-05-08 01:47 | 52.73307 | 166.68669 | 39789 ft | 451 kts | 242° |
| 2026-05-08 01:47 | 52.70139 | 166.59767 | 39786 ft | 451 kts | 242° |
| 2026-05-08 01:48 | 52.65375 | 166.46448 | 39784 ft | 450 kts | 242° |
| 2026-05-08 01:48 | 52.62214 | 166.37645 | 39797 ft | 449 kts | 242° |
| 2026-05-08 01:49 | 52.59047 | 166.28859 | 39799 ft | 448 kts | 242° |
| 2026-05-08 01:49 | 52.55872 | 166.20081 | 39802 ft | 448 kts | 242° |
| 2026-05-08 01:50 | 52.52690 | 166.11314 | 39804 ft | 447 kts | 242° |
| 2026-05-08 01:50 | 52.49509 | 166.02580 | 39801 ft | 447 kts | 242° |
| 2026-05-08 01:51 | 52.46331 | 165.93886 | 39802 ft | 446 kts | 242° |
| 2026-05-08 01:51 | 52.43148 | 165.85208 | 39800 ft | 447 kts | 242° |
| 2026-05-08 01:52 | 52.39946 | 165.76506 | 39806 ft | 445 kts | 242° |
| 2026-05-08 01:52 | 52.36757 | 165.67873 | 39800 ft | 446 kts | 242° |
| 2026-05-08 01:53 | 52.33566 | 165.59261 | 39805 ft | 444 kts | 242° |
| 2026-05-08 01:53 | 52.30368 | 165.50659 | 39790 ft | 443 kts | 242° |
| 2026-05-08 01:54 | 52.27163 | 165.42070 | 39786 ft | 442 kts | 242° |
| 2026-05-08 01:54 | 52.23976 | 165.33556 | 39787 ft | 442 kts | 241° |
| 2026-05-08 01:55 | 52.20787 | 165.25064 | 39798 ft | 443 kts | 241° |
| 2026-05-08 01:55 | 52.17567 | 165.16519 | 39799 ft | 441 kts | 242° |
| 2026-05-08 01:56 | 52.14373 | 165.08073 | 39799 ft | 440 kts | 242° |
| 2026-05-08 01:56 | 52.11174 | 164.99640 | 39804 ft | 440 kts | 242° |
| 2026-05-08 01:57 | 52.07964 | 164.91206 | 39804 ft | 439 kts | 242° |
| 2026-05-08 01:57 | 52.04737 | 164.82756 | 39808 ft | 440 kts | 242° |
| 2026-05-08 01:58 | 52.01541 | 164.74416 | 39786 ft | 438 kts | 242° |
| 2026-05-08 01:58 | 51.98323 | 164.66045 | 39803 ft | 437 kts | 242° |
| 2026-05-08 01:59 | 51.95119 | 164.57738 | 39816 ft | 436 kts | 242° |
| 2026-05-08 01:59 | 51.91895 | 164.49405 | 39793 ft | 436 kts | 242° |
| 2026-05-08 02:00 | 51.88680 | 164.41124 | 39794 ft | 436 kts | 242° |
| 2026-05-08 02:00 | 51.85449 | 164.32828 | 39799 ft | 436 kts | 241° |
| 2026-05-08 02:01 | 51.82225 | 164.24577 | 39795 ft | 436 kts | 241° |
| 2026-05-08 02:01 | 51.79003 | 164.16357 | 39791 ft | 436 kts | 241° |
| 2026-05-08 02:02 | 51.75759 | 164.08107 | 39792 ft | 434 kts | 241° |
| 2026-05-08 02:02 | 51.72543 | 163.99956 | 39791 ft | 435 kts | 241° |
| 2026-05-08 02:03 | 51.69285 | 163.91724 | 39803 ft | 434 kts | 241° |
| 2026-05-08 02:03 | 51.66051 | 163.83578 | 39806 ft | 433 kts | 242° |
| 2026-05-08 02:04 | 51.62808 | 163.75433 | 39804 ft | 433 kts | 241° |
| 2026-05-08 02:04 | 51.59569 | 163.67326 | 39806 ft | 432 kts | 241° |
| 2026-05-08 02:05 | 51.56328 | 163.59241 | 39802 ft | 430 kts | 242° |
| 2026-05-08 02:05 | 51.53085 | 163.51173 | 39804 ft | 430 kts | 242° |
| 2026-05-08 02:06 | 51.49871 | 163.43199 | 39808 ft | 432 kts | 242° |
| 2026-05-08 02:06 | 51.46611 | 163.35141 | 39803 ft | 429 kts | 242° |
| 2026-05-08 02:07 | 51.43357 | 163.27119 | 39806 ft | 432 kts | 241° |
| 2026-05-08 02:07 | 51.40089 | 163.19092 | 39816 ft | 429 kts | 241° |
| 2026-05-08 02:08 | 51.36850 | 163.11160 | 39809 ft | 429 kts | 241° |
| 2026-05-08 02:08 | 51.33588 | 163.03194 | 39809 ft | 429 kts | 241° |
| 2026-05-08 02:09 | 51.30333 | 162.95268 | 39807 ft | 427 kts | 241° |
| 2026-05-08 02:09 | 51.27081 | 162.87376 | 39804 ft | 427 kts | 240° |
| 2026-05-08 02:10 | 51.23817 | 162.79481 | 39796 ft | 425 kts | 241° |
| 2026-05-08 02:10 | 51.20543 | 162.71580 | 39801 ft | 428 kts | 241° |
| 2026-05-08 02:11 | 51.17282 | 162.63739 | 39802 ft | 425 kts | 241° |
| 2026-05-08 02:11 | 51.14012 | 162.55899 | 39802 ft | 428 kts | 241° |
| 2026-05-08 02:12 | 51.10737 | 162.48071 | 39802 ft | 425 kts | 241° |
| 2026-05-08 02:12 | 51.07448 | 162.40231 | 39807 ft | 426 kts | 240° |
| 2026-05-08 02:13 | 51.04181 | 162.32471 | 39823 ft | 422 kts | 240° |
| 2026-05-08 02:13 | 51.00893 | 162.24681 | 39821 ft | 424 kts | 240° |
| 2026-05-08 02:14 | 50.97625 | 162.16960 | 39824 ft | 424 kts | 240° |
| 2026-05-08 02:14 | 50.94351 | 162.09251 | 39832 ft | 421 kts | 240° |
| 2026-05-08 02:15 | 50.91069 | 162.01544 | 39835 ft | 421 kts | 240° |
| 2026-05-08 02:15 | 50.87811 | 161.93918 | 39844 ft | 422 kts | 240° |
| 2026-05-08 02:16 | 50.84527 | 161.86252 | 39820 ft | 422 kts | 240° |
| 2026-05-08 02:16 | 50.81244 | 161.78610 | 39821 ft | 420 kts | 240° |
| 2026-05-08 02:17 | 50.77975 | 161.71027 | 39820 ft | 417 kts | 240° |
| 2026-05-08 02:17 | 50.74697 | 161.63437 | 39811 ft | 421 kts | 241° |
| 2026-05-08 02:18 | 50.71416 | 161.55868 | 39822 ft | 420 kts | 240° |
| 2026-05-08 02:18 | 50.68127 | 161.48303 | 39815 ft | 417 kts | 240° |
| 2026-05-08 02:19 | 50.64874 | 161.40842 | 39808 ft | 415 kts | 240° |
| 2026-05-08 02:19 | 50.61597 | 161.33345 | 39819 ft | 416 kts | 240° |
| 2026-05-08 02:20 | 50.58324 | 161.25879 | 39825 ft | 415 kts | 240° |
| 2026-05-08 02:20 | 50.55057 | 161.18448 | 39818 ft | 415 kts | 240° |
| 2026-05-08 02:21 | 50.51799 | 161.11060 | 39814 ft | 415 kts | 240° |
| 2026-05-08 02:21 | 50.48523 | 161.03651 | 39817 ft | 413 kts | 240° |
| 2026-05-08 02:22 | 50.45248 | 160.96266 | 39814 ft | 411 kts | 240° |
| 2026-05-08 02:22 | 50.41975 | 160.88902 | 39827 ft | 411 kts | 240° |
| 2026-05-08 02:23 | 50.38720 | 160.81606 | 39828 ft | 412 kts | 241° |
| 2026-05-08 02:23 | 50.35446 | 160.74280 | 39830 ft | 412 kts | 241° |
| 2026-05-08 02:24 | 50.32178 | 160.66994 | 39826 ft | 411 kts | 240° |
| 2026-05-08 02:24 | 50.28891 | 160.59685 | 39828 ft | 408 kts | 240° |
| 2026-05-08 02:25 | 50.25641 | 160.52472 | 39826 ft | 412 kts | 240° |
| 2026-05-08 02:25 | 50.22356 | 160.45210 | 39822 ft | 409 kts | 241° |
| 2026-05-08 02:26 | 50.19068 | 160.37958 | 39828 ft | 408 kts | 241° |
| 2026-05-08 02:26 | 50.15797 | 160.30798 | 39833 ft | 406 kts | 240° |
| 2026-05-08 02:27 | 50.12508 | 160.23619 | 39839 ft | 408 kts | 240° |
| 2026-05-08 02:27 | 50.09229 | 160.16481 | 39841 ft | 407 kts | 239° |
| 2026-05-08 02:28 | 50.05959 | 160.09383 | 39845 ft | 404 kts | 239° |
| 2026-05-08 02:28 | 50.02703 | 160.02331 | 39843 ft | 405 kts | 239° |
| 2026-05-08 02:29 | 49.99403 | 159.95203 | 39852 ft | 407 kts | 240° |
| 2026-05-08 02:29 | 49.96115 | 159.88121 | 39832 ft | 405 kts | 239° |
| 2026-05-08 02:30 | 49.92842 | 159.81094 | 39856 ft | 404 kts | 240° |
| 2026-05-08 02:30 | 49.89540 | 159.74016 | 39842 ft | 403 kts | 240° |
| 2026-05-08 02:31 | 49.86258 | 159.67004 | 39841 ft | 404 kts | 240° |
| 2026-05-08 02:31 | 49.82989 | 159.60039 | 39836 ft | 401 kts | 240° |
| 2026-05-08 02:32 | 49.79708 | 159.53065 | 39845 ft | 402 kts | 240° |
| 2026-05-08 02:32 | 49.76419 | 159.46091 | 39847 ft | 402 kts | 240° |
| 2026-05-08 02:33 | 49.73145 | 159.39169 | 39838 ft | 401 kts | 240° |
| 2026-05-08 02:33 | 49.69854 | 159.32263 | 39844 ft | 401 kts | 239° |
| 2026-05-08 02:34 | 49.66489 | 159.25397 | 39850 ft | 402 kts | 239° |
| 2026-05-08 02:34 | 49.63130 | 159.18561 | 39848 ft | 400 kts | 239° |
| 2026-05-08 02:35 | 49.59776 | 159.11743 | 39876 ft | 401 kts | 238° |
| 2026-05-08 02:35 | 49.56441 | 159.04982 | 39856 ft | 398 kts | 239° |
| 2026-05-08 02:36 | 49.53086 | 158.98192 | 39867 ft | 400 kts | 239° |
| 2026-05-08 02:36 | 49.49726 | 158.91409 | 39859 ft | 401 kts | 239° |
| 2026-05-08 02:37 | 49.46342 | 158.84599 | 39863 ft | 399 kts | 238° |
| 2026-05-08 02:37 | 49.43011 | 158.77913 | 39852 ft | 393 kts | 239° |
| 2026-05-08 02:38 | 49.39669 | 158.71216 | 39850 ft | 397 kts | 239° |
| 2026-05-08 02:38 | 49.36338 | 158.64563 | 39867 ft | 395 kts | 239° |
| 2026-05-08 02:39 | 49.32982 | 158.57872 | 39879 ft | 396 kts | 239° |
| 2026-05-08 02:39 | 49.29628 | 158.51205 | 39864 ft | 394 kts | 239° |
| 2026-05-08 02:40 | 49.26306 | 158.44618 | 39864 ft | 394 kts | 239° |
| 2026-05-08 02:40 | 49.22958 | 158.37997 | 39871 ft | 391 kts | 238° |
| 2026-05-08 02:41 | 49.19643 | 158.31456 | 39882 ft | 393 kts | 238° |
| 2026-05-08 02:41 | 49.16302 | 158.24878 | 39878 ft | 391 kts | 238° |
| 2026-05-08 02:42 | 49.12980 | 158.18355 | 39878 ft | 390 kts | 238° |
| 2026-05-08 02:42 | 49.09661 | 158.11853 | 39845 ft | 392 kts | 238° |
| 2026-05-08 02:43 | 49.06311 | 158.05307 | 39857 ft | 389 kts | 238° |
| 2026-05-08 02:43 | 49.03004 | 157.98860 | 39864 ft | 392 kts | 238° |
| 2026-05-08 02:44 | 48.99652 | 157.92346 | 39868 ft | 388 kts | 238° |
| 2026-05-08 02:44 | 48.96314 | 157.85869 | 39857 ft | 388 kts | 238° |
| 2026-05-08 02:45 | 48.93002 | 157.79459 | 39863 ft | 390 kts | 238° |
| 2026-05-08 02:45 | 48.89682 | 157.73050 | 39874 ft | 388 kts | 238° |
| 2026-05-08 02:46 | 48.86367 | 157.66669 | 39863 ft | 383 kts | 239° |
| 2026-05-08 02:46 | 48.83068 | 157.60327 | 39873 ft | 387 kts | 239° |
| 2026-05-08 02:47 | 48.79745 | 157.53961 | 39861 ft | 385 kts | 239° |
| 2026-05-08 02:47 | 48.76422 | 157.47606 | 39864 ft | 384 kts | 239° |
| 2026-05-08 02:48 | 48.73118 | 157.41304 | 39883 ft | 383 kts | 239° |
| 2026-05-08 02:48 | 48.69810 | 157.35008 | 39874 ft | 383 kts | 238° |
| 2026-05-08 02:49 | 48.66505 | 157.28732 | 39904 ft | 382 kts | 238° |
| 2026-05-08 02:49 | 48.63179 | 157.22430 | 39907 ft | 385 kts | 238° |
| 2026-05-08 02:50 | 48.59881 | 157.16202 | 39889 ft | 379 kts | 238° |
| 2026-05-08 02:50 | 48.56566 | 157.09947 | 39902 ft | 384 kts | 238° |
| 2026-05-08 02:51 | 48.53273 | 157.03757 | 39883 ft | 378 kts | 239° |
| 2026-05-08 02:51 | 48.49974 | 156.97563 | 39898 ft | 381 kts | 239° |
| 2026-05-08 02:52 | 48.46670 | 156.91380 | 39887 ft | 378 kts | 239° |
| 2026-05-08 02:52 | 48.43399 | 156.85268 | 39887 ft | 377 kts | 239° |
| 2026-05-08 02:53 | 48.40101 | 156.79118 | 39894 ft | 379 kts | 238° |
| 2026-05-08 02:53 | 48.36814 | 156.73009 | 39914 ft | 376 kts | 239° |
| 2026-05-08 02:54 | 48.33524 | 156.66904 | 39910 ft | 378 kts | 239° |
| 2026-05-08 02:54 | 48.30232 | 156.60812 | 39893 ft | 375 kts | 240° |
| 2026-05-08 02:55 | 48.25337 | 156.51776 | 39889 ft | 372 kts | 239° |
| 2026-05-08 02:56 | 48.22100 | 156.45819 | 39882 ft | 369 kts | 240° |
| 2026-05-08 02:56 | 48.18847 | 156.39838 | 39883 ft | 374 kts | 239° |
| 2026-05-08 02:57 | 48.15590 | 156.33874 | 39894 ft | 369 kts | 239° |
| 2026-05-08 02:57 | 48.12331 | 156.27911 | 39905 ft | 371 kts | 239° |
| 2026-05-08 02:58 | 48.09109 | 156.22038 | 39870 ft | 365 kts | 239° |
| 2026-05-08 02:58 | 48.05860 | 156.16115 | 39894 ft | 371 kts | 239° |
| 2026-05-08 02:59 | 48.02610 | 156.10214 | 39898 ft | 368 kts | 239° |
| 2026-05-08 02:59 | 47.99377 | 156.04355 | 39927 ft | 369 kts | 240° |
| 2026-05-08 03:00 | 47.96132 | 155.98489 | 39894 ft | 365 kts | 240° |
| 2026-05-08 03:00 | 47.92906 | 155.92667 | 39902 ft | 365 kts | 239° |
| 2026-05-08 03:01 | 47.89684 | 155.86862 | 39896 ft | 366 kts | 240° |
| 2026-05-08 03:01 | 47.86450 | 155.81052 | 39874 ft | 364 kts | 240° |
| 2026-05-08 03:02 | 47.83211 | 155.75241 | 39887 ft | 367 kts | 240° |
| 2026-05-08 03:02 | 47.79969 | 155.69443 | 39894 ft | 364 kts | 239° |
| 2026-05-08 03:03 | 47.76748 | 155.63690 | 39912 ft | 363 kts | 239° |
| 2026-05-08 03:03 | 47.73554 | 155.58005 | 39891 ft | 357 kts | 240° |
| 2026-05-08 03:04 | 47.70330 | 155.52266 | 39915 ft | 363 kts | 239° |
| 2026-05-08 03:04 | 47.67129 | 155.46591 | 39908 ft | 359 kts | 239° |
| 2026-05-08 03:05 | 47.63934 | 155.40930 | 39892 ft | 361 kts | 239° |
| 2026-05-08 03:05 | 47.60736 | 155.35284 | 39900 ft | 359 kts | 239° |
| 2026-05-08 03:06 | 47.57527 | 155.29627 | 39935 ft | 359 kts | 239° |
| 2026-05-08 03:06 | 47.54307 | 155.23959 | 39922 ft | 359 kts | 239° |
| 2026-05-08 03:07 | 47.51125 | 155.18375 | 39918 ft | 357 kts | 238° |
| 2026-05-08 03:07 | 47.47915 | 155.12747 | 39910 ft | 359 kts | 238° |
| 2026-05-08 03:08 | 47.44708 | 155.07143 | 39920 ft | 358 kts | 238° |
| 2026-05-08 03:08 | 47.41523 | 155.01588 | 39910 ft | 356 kts | 238° |
| 2026-05-08 03:09 | 47.38305 | 154.95981 | 39912 ft | 358 kts | 239° |
| 2026-05-08 03:09 | 47.35119 | 154.90445 | 39911 ft | 356 kts | 238° |
| 2026-05-08 03:10 | 47.31921 | 154.84901 | 39888 ft | 355 kts | 239° |
| 2026-05-08 03:10 | 47.28724 | 154.79366 | 39909 ft | 356 kts | 238° |
| 2026-05-08 03:11 | 47.25529 | 154.73851 | 39906 ft | 356 kts | 239° |
| 2026-05-08 03:11 | 47.22316 | 154.68312 | 39913 ft | 355 kts | 238° |
| 2026-05-08 03:12 | 47.19119 | 154.62813 | 39882 ft | 353 kts | 238° |
| 2026-05-08 03:12 | 47.15940 | 154.57353 | 39902 ft | 357 kts | 238° |
| 2026-05-08 03:13 | 47.12729 | 154.51859 | 39889 ft | 352 kts | 238° |
| 2026-05-08 03:13 | 47.09539 | 154.46400 | 39890 ft | 355 kts | 238° |
| 2026-05-08 03:14 | 47.06364 | 154.40988 | 39887 ft | 351 kts | 238° |
| 2026-05-08 03:14 | 47.03171 | 154.35545 | 39894 ft | 354 kts | 238° |
| 2026-05-08 03:15 | 46.99961 | 154.30092 | 39908 ft | 354 kts | 237° |
| 2026-05-08 03:15 | 46.96742 | 154.24631 | 39905 ft | 355 kts | 237° |
| 2026-05-08 03:16 | 46.93542 | 154.19218 | 39905 ft | 354 kts | 238° |
| 2026-05-08 03:16 | 46.90320 | 154.13776 | 39903 ft | 353 kts | 238° |
| 2026-05-08 03:17 | 46.87115 | 154.08372 | 39906 ft | 354 kts | 238° |
| 2026-05-08 03:17 | 46.83945 | 154.03036 | 39907 ft | 355 kts | 237° |
| 2026-05-08 03:18 | 46.80708 | 153.97601 | 39904 ft | 356 kts | 237° |
| 2026-05-08 03:18 | 46.77450 | 153.92142 | 39905 ft | 355 kts | 237° |
| 2026-05-08 03:19 | 46.74206 | 153.86717 | 39905 ft | 356 kts | 236° |
| 2026-05-08 03:19 | 46.70962 | 153.81303 | 39905 ft | 355 kts | 236° |
| 2026-05-08 03:20 | 46.67706 | 153.75877 | 39902 ft | 357 kts | 237° |
| 2026-05-08 03:20 | 46.64446 | 153.70459 | 39903 ft | 357 kts | 236° |
| 2026-05-08 03:21 | 46.61177 | 153.65036 | 39902 ft | 355 kts | 236° |
| 2026-05-08 03:21 | 46.57917 | 153.59633 | 39901 ft | 358 kts | 236° |
| 2026-05-08 03:22 | 46.54655 | 153.54246 | 39902 ft | 356 kts | 236° |
| 2026-05-08 03:22 | 46.51385 | 153.48851 | 39896 ft | 357 kts | 236° |
| 2026-05-08 03:23 | 46.48103 | 153.43449 | 39890 ft | 358 kts | 236° |
| 2026-05-08 03:23 | 46.44854 | 153.38113 | 39889 ft | 355 kts | 236° |
| 2026-05-08 03:24 | 46.41580 | 153.32744 | 39913 ft | 357 kts | 235° |
| 2026-05-08 03:24 | 46.38299 | 153.27376 | 39905 ft | 357 kts | 235° |
| 2026-05-08 03:25 | 46.34984 | 153.21960 | 39896 ft | 359 kts | 235° |
| 2026-05-08 03:25 | 46.31696 | 153.16603 | 39894 ft | 357 kts | 234° |
| 2026-05-08 03:26 | 46.28392 | 153.11226 | 39891 ft | 359 kts | 235° |
| 2026-05-08 03:26 | 46.25086 | 153.05859 | 39889 ft | 359 kts | 235° |
| 2026-05-08 03:27 | 46.21783 | 153.00508 | 39887 ft | 359 kts | 234° |
| 2026-05-08 03:27 | 46.18441 | 152.95161 | 39884 ft | 358 kts | 234° |
| 2026-05-08 03:28 | 46.15109 | 152.89844 | 39882 ft | 358 kts | 234° |
| 2026-05-08 03:28 | 46.11775 | 152.84534 | 39878 ft | 358 kts | 234° |
| 2026-05-08 03:29 | 46.08418 | 152.79198 | 39879 ft | 359 kts | 234° |
| 2026-05-08 03:29 | 46.05076 | 152.73894 | 39875 ft | 360 kts | 234° |
| 2026-05-08 03:30 | 46.00047 | 152.65935 | 39874 ft | 359 kts | 233° |
| 2026-05-08 03:31 | 45.93317 | 152.55318 | 39866 ft | 360 kts | 233° |
| 2026-05-08 03:32 | 45.88269 | 152.47385 | 39876 ft | 360 kts | 234° |
| 2026-05-08 03:32 | 45.84890 | 152.42085 | 39869 ft | 361 kts | 233° |
| 2026-05-08 03:33 | 45.81515 | 152.36804 | 39873 ft | 359 kts | 233° |
| 2026-05-08 03:33 | 45.78148 | 152.31543 | 39890 ft | 361 kts | 233° |
| 2026-05-08 03:34 | 45.74758 | 152.26257 | 39887 ft | 360 kts | 233° |
| 2026-05-08 03:34 | 45.71349 | 152.20952 | 39877 ft | 362 kts | 233° |
| 2026-05-08 03:35 | 45.67974 | 152.15712 | 39883 ft | 359 kts | 233° |
| 2026-05-08 03:35 | 45.64575 | 152.10442 | 39878 ft | 361 kts | 233° |
| 2026-05-08 03:36 | 45.61176 | 152.05183 | 39870 ft | 361 kts | 232° |
| 2026-05-08 03:36 | 45.57778 | 151.99937 | 39874 ft | 360 kts | 232° |
| 2026-05-08 03:37 | 45.54386 | 151.94708 | 39875 ft | 362 kts | 232° |
| 2026-05-08 03:37 | 45.50975 | 151.89461 | 39871 ft | 361 kts | 232° |
| 2026-05-08 03:38 | 45.47552 | 151.84206 | 39872 ft | 363 kts | 232° |
| 2026-05-08 03:38 | 45.44143 | 151.78981 | 39869 ft | 361 kts | 232° |
| 2026-05-08 03:39 | 45.40736 | 151.73770 | 39861 ft | 362 kts | 232° |
| 2026-05-08 03:39 | 45.37292 | 151.68514 | 39863 ft | 363 kts | 232° |
| 2026-05-08 03:40 | 45.33882 | 151.63318 | 39855 ft | 363 kts | 232° |
| 2026-05-08 03:40 | 45.30417 | 151.58049 | 39852 ft | 363 kts | 232° |
| 2026-05-08 03:41 | 45.26976 | 151.52826 | 39850 ft | 364 kts | 232° |
| 2026-05-08 03:41 | 45.23508 | 151.47571 | 39843 ft | 365 kts | 232° |
| 2026-05-08 03:42 | 45.20048 | 151.42340 | 39845 ft | 364 kts | 232° |
| 2026-05-08 03:42 | 45.16572 | 151.37093 | 39840 ft | 365 kts | 231° |
| 2026-05-08 03:43 | 45.13096 | 151.31857 | 39864 ft | 365 kts | 231° |
| 2026-05-08 03:43 | 45.09644 | 151.26668 | 39865 ft | 364 kts | 231° |
| 2026-05-08 03:44 | 45.06166 | 151.21448 | 39857 ft | 365 kts | 230° |
| 2026-05-08 03:44 | 45.02696 | 151.16252 | 39859 ft | 365 kts | 231° |
| 2026-05-08 03:45 | 44.99198 | 151.11021 | 39855 ft | 365 kts | 230° |
| 2026-05-08 03:45 | 44.95706 | 151.05812 | 39846 ft | 366 kts | 230° |
| 2026-05-08 03:46 | 44.92220 | 151.00619 | 39852 ft | 368 kts | 230° |
| 2026-05-08 03:46 | 44.88707 | 150.95398 | 39861 ft | 367 kts | 231° |
| 2026-05-08 03:47 | 44.85193 | 150.90184 | 39861 ft | 370 kts | 231° |
| 2026-05-08 03:47 | 44.81660 | 150.84953 | 39856 ft | 368 kts | 230° |
| 2026-05-08 03:48 | 44.78137 | 150.79747 | 39856 ft | 369 kts | 230° |
| 2026-05-08 03:48 | 44.74602 | 150.74532 | 39849 ft | 368 kts | 230° |
| 2026-05-08 03:49 | 44.71080 | 150.69347 | 39839 ft | 369 kts | 230° |
| 2026-05-08 03:49 | 44.67556 | 150.64168 | 39829 ft | 369 kts | 230° |
| 2026-05-08 03:50 | 44.63998 | 150.58948 | 39826 ft | 372 kts | 230° |
| 2026-05-08 03:50 | 44.60413 | 150.53699 | 39826 ft | 369 kts | 230° |
| 2026-05-08 03:51 | 44.56880 | 150.48537 | 39821 ft | 370 kts | 230° |
| 2026-05-08 03:51 | 44.53328 | 150.43356 | 39820 ft | 371 kts | 230° |
| 2026-05-08 03:52 | 44.49762 | 150.38164 | 39813 ft | 370 kts | 230° |
| 2026-05-08 03:52 | 44.46180 | 150.32959 | 39825 ft | 373 kts | 229° |
| 2026-05-08 03:53 | 44.42596 | 150.27762 | 39834 ft | 370 kts | 229° |
| 2026-05-08 03:53 | 44.39030 | 150.22600 | 39834 ft | 372 kts | 229° |
| 2026-05-08 03:54 | 44.35429 | 150.17397 | 39827 ft | 372 kts | 229° |
| 2026-05-08 03:54 | 44.31829 | 150.12204 | 39820 ft | 374 kts | 229° |
| 2026-05-08 03:55 | 44.28241 | 150.07039 | 39812 ft | 372 kts | 229° |
| 2026-05-08 03:55 | 44.24627 | 150.01846 | 39809 ft | 373 kts | 229° |
| 2026-05-08 03:56 | 44.21035 | 149.96695 | 39816 ft | 373 kts | 229° |
| 2026-05-08 03:56 | 44.17421 | 149.91522 | 39802 ft | 374 kts | 229° |
| 2026-05-08 03:57 | 44.13807 | 149.86359 | 39803 ft | 376 kts | 229° |
| 2026-05-08 03:57 | 44.10181 | 149.81187 | 39792 ft | 372 kts | 229° |
| 2026-05-08 03:58 | 44.06538 | 149.76001 | 39793 ft | 375 kts | 229° |
| 2026-05-08 03:58 | 44.02899 | 149.70831 | 39797 ft | 375 kts | 229° |
| 2026-05-08 03:59 | 43.99292 | 149.65717 | 39791 ft | 372 kts | 229° |
| 2026-05-08 03:59 | 43.95673 | 149.60594 | 39788 ft | 374 kts | 229° |
| 2026-05-08 04:00 | 43.92029 | 149.55446 | 39788 ft | 372 kts | 229° |
| 2026-05-08 04:00 | 43.88401 | 149.50330 | 39799 ft | 375 kts | 229° |
| 2026-05-08 04:01 | 43.84768 | 149.45216 | 39797 ft | 373 kts | 229° |
| 2026-05-08 04:01 | 43.81141 | 149.40120 | 39796 ft | 374 kts | 229° |
| 2026-05-08 04:02 | 43.77479 | 149.34984 | 39796 ft | 374 kts | 228° |
| 2026-05-08 04:02 | 43.73827 | 149.29872 | 39809 ft | 375 kts | 227° |
| 2026-05-08 04:03 | 43.70190 | 149.24789 | 39809 ft | 374 kts | 228° |
| 2026-05-08 04:03 | 43.64682 | 149.17111 | 39803 ft | 374 kts | 227° |
| 2026-05-08 04:04 | 43.61016 | 149.12012 | 39795 ft | 376 kts | 227° |
| 2026-05-08 04:04 | 43.57356 | 149.06931 | 39795 ft | 375 kts | 228° |
| 2026-05-08 04:05 | 43.53670 | 149.01822 | 39794 ft | 375 kts | 228° |
| 2026-05-08 04:05 | 43.50006 | 148.96753 | 39795 ft | 377 kts | 228° |
| 2026-05-08 04:06 | 43.46323 | 148.91669 | 39797 ft | 374 kts | 228° |
| 2026-05-08 04:06 | 43.42630 | 148.86578 | 39795 ft | 374 kts | 228° |
| 2026-05-08 04:07 | 43.38948 | 148.81512 | 39790 ft | 376 kts | 227° |
| 2026-05-08 04:07 | 43.35255 | 148.76443 | 39791 ft | 375 kts | 228° |
| 2026-05-08 04:08 | 43.31583 | 148.71410 | 39787 ft | 376 kts | 227° |
| 2026-05-08 04:08 | 43.27883 | 148.66347 | 39781 ft | 375 kts | 227° |
| 2026-05-08 04:09 | 43.24182 | 148.61293 | 39778 ft | 378 kts | 227° |
| 2026-05-08 04:09 | 43.20479 | 148.56244 | 39774 ft | 377 kts | 227° |
| 2026-05-08 04:10 | 43.16772 | 148.51201 | 39771 ft | 377 kts | 227° |
| 2026-05-08 04:10 | 43.13065 | 148.46166 | 39772 ft | 374 kts | 227° |
| 2026-05-08 04:11 | 43.09379 | 148.41168 | 39773 ft | 374 kts | 227° |
| 2026-05-08 04:11 | 43.05659 | 148.36133 | 39770 ft | 378 kts | 227° |
| 2026-05-08 04:12 | 43.01948 | 148.31120 | 39787 ft | 377 kts | 226° |
| 2026-05-08 04:12 | 42.98221 | 148.26094 | 39782 ft | 375 kts | 227° |
| 2026-05-08 04:13 | 42.94498 | 148.21081 | 39778 ft | 376 kts | 226° |
| 2026-05-08 04:13 | 42.90780 | 148.16084 | 39786 ft | 378 kts | 226° |
| 2026-05-08 04:14 | 42.87019 | 148.11040 | 39804 ft | 380 kts | 226° |
| 2026-05-08 04:14 | 42.83280 | 148.06035 | 39804 ft | 378 kts | 226° |
| 2026-05-08 04:15 | 42.79536 | 148.01031 | 39797 ft | 377 kts | 226° |
| 2026-05-08 04:15 | 42.75783 | 147.96024 | 39792 ft | 379 kts | 226° |
| 2026-05-08 04:16 | 42.72024 | 147.91019 | 39793 ft | 378 kts | 226° |
| 2026-05-08 04:16 | 42.68293 | 147.86060 | 39784 ft | 377 kts | 226° |
| 2026-05-08 04:17 | 42.64526 | 147.81059 | 39777 ft | 380 kts | 226° |
| 2026-05-08 04:17 | 42.60756 | 147.76068 | 39781 ft | 379 kts | 226° |
| 2026-05-08 04:18 | 42.56980 | 147.71074 | 39779 ft | 381 kts | 226° |
| 2026-05-08 04:18 | 42.53205 | 147.66092 | 39781 ft | 379 kts | 226° |
| 2026-05-08 04:19 | 42.49436 | 147.61127 | 39777 ft | 380 kts | 226° |
| 2026-05-08 04:19 | 42.45660 | 147.56160 | 39778 ft | 379 kts | 226° |
| 2026-05-08 04:20 | 42.41866 | 147.51178 | 39773 ft | 380 kts | 226° |
| 2026-05-08 04:20 | 42.38083 | 147.46220 | 39775 ft | 380 kts | 226° |
| 2026-05-08 04:21 | 42.34287 | 147.41243 | 39772 ft | 380 kts | 226° |
| 2026-05-08 04:21 | 42.30510 | 147.36302 | 39777 ft | 380 kts | 226° |
| 2026-05-08 04:22 | 42.26715 | 147.31345 | 39801 ft | 378 kts | 226° |
| 2026-05-08 04:22 | 42.22937 | 147.26419 | 39796 ft | 378 kts | 225° |
| 2026-05-08 04:23 | 42.19160 | 147.21503 | 39800 ft | 378 kts | 226° |
| 2026-05-08 04:23 | 42.15405 | 147.16623 | 39797 ft | 378 kts | 226° |
| 2026-05-08 04:24 | 42.11595 | 147.11682 | 39795 ft | 379 kts | 226° |
| 2026-05-08 04:24 | 42.07790 | 147.06757 | 39796 ft | 380 kts | 225° |
| 2026-05-08 04:25 | 42.03991 | 147.01846 | 39794 ft | 377 kts | 225° |
| 2026-05-08 04:25 | 42.00209 | 146.96965 | 39791 ft | 382 kts | 225° |
| 2026-05-08 04:26 | 41.96386 | 146.92044 | 39788 ft | 378 kts | 226° |
| 2026-05-08 04:26 | 41.92589 | 146.87161 | 39789 ft | 379 kts | 226° |
| 2026-05-08 04:27 | 41.88802 | 146.82294 | 39803 ft | 380 kts | 225° |
| 2026-05-08 04:27 | 41.84993 | 146.77402 | 39799 ft | 380 kts | 226° |
| 2026-05-08 04:28 | 41.81182 | 146.72516 | 39793 ft | 380 kts | 226° |
| 2026-05-08 04:28 | 41.77383 | 146.67656 | 39790 ft | 380 kts | 226° |
| 2026-05-08 04:29 | 41.73559 | 146.62770 | 39790 ft | 379 kts | 225° |
| 2026-05-08 04:29 | 41.69756 | 146.57921 | 39792 ft | 380 kts | 226° |
| 2026-05-08 04:30 | 41.65924 | 146.53043 | 39786 ft | 380 kts | 225° |
| 2026-05-08 04:30 | 41.62094 | 146.48175 | 39786 ft | 380 kts | 226° |
| 2026-05-08 04:31 | 41.58250 | 146.43298 | 39786 ft | 383 kts | 225° |
| 2026-05-08 04:31 | 41.54430 | 146.38461 | 39784 ft | 381 kts | 226° |
| 2026-05-08 04:32 | 41.50572 | 146.33583 | 39799 ft | 383 kts | 225° |
| 2026-05-08 04:32 | 41.46728 | 146.28732 | 39796 ft | 382 kts | 225° |
| 2026-05-08 04:33 | 41.42851 | 146.23846 | 39797 ft | 382 kts | 224° |
| 2026-05-08 04:33 | 41.39017 | 146.19025 | 39797 ft | 382 kts | 225° |
| 2026-05-08 04:34 | 41.35142 | 146.14160 | 39801 ft | 384 kts | 225° |
| 2026-05-08 04:34 | 41.31271 | 146.09306 | 39798 ft | 383 kts | 224° |
| 2026-05-08 04:35 | 41.27427 | 146.04497 | 39797 ft | 383 kts | 224° |
| 2026-05-08 04:35 | 41.23553 | 145.99657 | 39797 ft | 384 kts | 225° |
| 2026-05-08 04:36 | 41.19677 | 145.94824 | 39797 ft | 381 kts | 225° |
| 2026-05-08 04:36 | 41.15817 | 145.90018 | 39794 ft | 382 kts | 224° |
| 2026-05-08 04:37 | 41.11945 | 145.85205 | 39789 ft | 381 kts | 224° |
| 2026-05-08 04:37 | 41.08052 | 145.80376 | 39789 ft | 384 kts | 224° |
| 2026-05-08 04:38 | 41.04189 | 145.75591 | 39785 ft | 383 kts | 225° |
| 2026-05-08 04:38 | 41.00280 | 145.70756 | 39775 ft | 384 kts | 225° |
| 2026-05-08 04:39 | 40.96391 | 145.65958 | 39767 ft | 384 kts | 225° |
| 2026-05-08 04:39 | 40.92492 | 145.61151 | 39767 ft | 384 kts | 225° |
| 2026-05-08 04:40 | 40.88588 | 145.56348 | 39780 ft | 381 kts | 224° |
| 2026-05-08 04:40 | 40.84689 | 145.51559 | 39779 ft | 383 kts | 224° |
| 2026-05-08 04:41 | 40.80811 | 145.46805 | 39778 ft | 385 kts | 224° |
| 2026-05-08 04:41 | 40.76891 | 145.42007 | 39777 ft | 382 kts | 225° |
| 2026-05-08 04:42 | 40.73003 | 145.37256 | 39777 ft | 383 kts | 225° |
| 2026-05-08 04:42 | 40.69087 | 145.32478 | 39792 ft | 383 kts | 224° |
| 2026-05-08 04:43 | 40.65170 | 145.27707 | 39793 ft | 384 kts | 224° |
| 2026-05-08 04:43 | 40.61266 | 145.22961 | 39790 ft | 382 kts | 224° |
| 2026-05-08 04:44 | 40.57354 | 145.18211 | 39789 ft | 381 kts | 224° |
| 2026-05-08 04:44 | 40.53472 | 145.13509 | 39791 ft | 383 kts | 224° |
| 2026-05-08 04:45 | 40.49548 | 145.08760 | 39791 ft | 384 kts | 224° |
| 2026-05-08 04:45 | 40.45617 | 145.04013 | 39791 ft | 383 kts | 224° |
| 2026-05-08 04:46 | 40.41708 | 144.99298 | 39786 ft | 386 kts | 224° |
| 2026-05-08 04:46 | 40.37780 | 144.94569 | 39780 ft | 382 kts | 224° |
| 2026-05-08 04:47 | 40.33850 | 144.89845 | 39775 ft | 384 kts | 224° |
| 2026-05-08 04:47 | 40.29943 | 144.85156 | 39774 ft | 383 kts | 224° |
| 2026-05-08 04:48 | 40.26009 | 144.80443 | 39775 ft | 382 kts | 224° |
| 2026-05-08 04:48 | 40.22103 | 144.75771 | 39779 ft | 384 kts | 224° |
| 2026-05-08 04:49 | 40.18171 | 144.71075 | 39780 ft | 382 kts | 224° |
| 2026-05-08 04:49 | 40.14260 | 144.66411 | 39776 ft | 383 kts | 224° |
| 2026-05-08 04:50 | 40.10310 | 144.61710 | 39768 ft | 382 kts | 224° |
| 2026-05-08 04:50 | 40.06387 | 144.57048 | 39766 ft | 382 kts | 224° |
| 2026-05-08 04:51 | 40.02496 | 144.52432 | 39769 ft | 383 kts | 224° |
| 2026-05-08 04:51 | 39.98536 | 144.47740 | 39766 ft | 381 kts | 224° |
| 2026-05-08 04:52 | 39.94614 | 144.43102 | 39764 ft | 384 kts | 224° |
| 2026-05-08 04:52 | 39.90668 | 144.38444 | 39764 ft | 382 kts | 224° |
| 2026-05-08 04:53 | 39.86742 | 144.33815 | 39786 ft | 384 kts | 223° |
| 2026-05-08 04:53 | 39.82772 | 144.29144 | 39786 ft | 384 kts | 224° |
| 2026-05-08 04:54 | 39.78817 | 144.24497 | 39782 ft | 385 kts | 223° |
| 2026-05-08 04:54 | 39.74860 | 144.19855 | 39772 ft | 384 kts | 223° |
| 2026-05-08 04:55 | 39.70879 | 144.15192 | 39768 ft | 386 kts | 223° |
| 2026-05-08 04:55 | 39.66907 | 144.10547 | 39767 ft | 386 kts | 223° |
| 2026-05-08 04:56 | 39.62931 | 144.05907 | 39764 ft | 385 kts | 223° |
| 2026-05-08 04:56 | 39.58933 | 144.01247 | 39759 ft | 385 kts | 224° |
| 2026-05-08 04:57 | 39.54962 | 143.96626 | 39758 ft | 385 kts | 224° |
| 2026-05-08 04:57 | 39.51008 | 143.92033 | 39756 ft | 384 kts | 224° |
| 2026-05-08 04:58 | 39.47024 | 143.87411 | 39755 ft | 384 kts | 223° |
| 2026-05-08 04:58 | 39.43046 | 143.82805 | 39751 ft | 385 kts | 223° |
| 2026-05-08 04:59 | 39.39043 | 143.78175 | 39752 ft | 386 kts | 223° |
| 2026-05-08 04:59 | 39.35051 | 143.73569 | 39751 ft | 387 kts | 224° |
| 2026-05-08 05:00 | 39.31043 | 143.68948 | 39749 ft | 386 kts | 223° |
| 2026-05-08 05:00 | 39.27068 | 143.64375 | 39745 ft | 386 kts | 224° |
| 2026-05-08 05:01 | 39.23061 | 143.59773 | 39743 ft | 384 kts | 224° |
| 2026-05-08 05:01 | 39.19052 | 143.55174 | 39752 ft | 386 kts | 224° |
| 2026-05-08 05:02 | 39.15077 | 143.50623 | 39748 ft | 386 kts | 224° |
| 2026-05-08 05:02 | 39.11056 | 143.46025 | 39743 ft | 385 kts | 224° |
| 2026-05-08 05:03 | 39.07043 | 143.41443 | 39744 ft | 388 kts | 224° |
| 2026-05-08 05:03 | 39.03022 | 143.36861 | 39739 ft | 388 kts | 224° |
| 2026-05-08 05:04 | 38.98997 | 143.32280 | 39757 ft | 386 kts | 224° |
| 2026-05-08 05:04 | 38.94985 | 143.27722 | 39749 ft | 387 kts | 223° |
| 2026-05-08 05:05 | 38.90818 | 143.23406 | 39742 ft | 388 kts | 214° |
| 2026-05-08 05:05 | 38.85781 | 143.20685 | 39757 ft | 398 kts | 204° |
| 2026-05-08 05:06 | 38.80583 | 143.18388 | 39763 ft | 395 kts | 204° |
| 2026-05-08 05:06 | 38.75395 | 143.16109 | 39761 ft | 397 kts | 205° |
| 2026-05-08 05:07 | 38.70187 | 143.13827 | 39759 ft | 396 kts | 204° |
| 2026-05-08 05:07 | 38.64930 | 143.11530 | 39753 ft | 399 kts | 205° |
| 2026-05-08 05:08 | 38.59723 | 143.09261 | 39752 ft | 397 kts | 204° |
| 2026-05-08 05:08 | 38.54460 | 143.06969 | 39740 ft | 399 kts | 204° |
| 2026-05-08 05:09 | 38.49198 | 143.04680 | 39738 ft | 401 kts | 204° |
| 2026-05-08 05:09 | 38.43943 | 143.02400 | 39737 ft | 399 kts | 204° |
| 2026-05-08 05:10 | 38.36085 | 142.98997 | 39735 ft | 398 kts | 204° |
| 2026-05-08 05:11 | 38.30854 | 142.96736 | 39731 ft | 397 kts | 204° |
| 2026-05-08 05:11 | 38.25575 | 142.94457 | 39730 ft | 398 kts | 204° |
| 2026-05-08 05:12 | 38.20351 | 142.92206 | 39734 ft | 397 kts | 205° |
| 2026-05-08 05:12 | 38.15111 | 142.89949 | 39720 ft | 401 kts | 205° |
| 2026-05-08 05:13 | 38.09850 | 142.87689 | 39716 ft | 399 kts | 205° |
| 2026-05-08 05:13 | 38.04583 | 142.85429 | 39710 ft | 399 kts | 205° |
| 2026-05-08 05:14 | 37.99310 | 142.83171 | 39709 ft | 398 kts | 205° |
| 2026-05-08 05:14 | 37.94080 | 142.80934 | 39703 ft | 400 kts | 204° |
| 2026-05-08 05:15 | 37.88792 | 142.78676 | 39721 ft | 399 kts | 205° |
| 2026-05-08 05:15 | 37.83560 | 142.76445 | 39724 ft | 399 kts | 205° |
| 2026-05-08 05:16 | 37.78264 | 142.74188 | 39733 ft | 400 kts | 205° |
| 2026-05-08 05:16 | 37.72999 | 142.71950 | 39734 ft | 402 kts | 205° |
| 2026-05-08 05:17 | 37.67712 | 142.69707 | 39733 ft | 399 kts | 204° |
| 2026-05-08 05:17 | 37.62410 | 142.67459 | 39734 ft | 401 kts | 204° |
| 2026-05-08 05:18 | 37.57131 | 142.65224 | 39738 ft | 402 kts | 204° |
| 2026-05-08 05:18 | 37.51843 | 142.62990 | 39731 ft | 403 kts | 205° |
| 2026-05-08 05:19 | 37.46553 | 142.60757 | 39727 ft | 401 kts | 204° |
| 2026-05-08 05:19 | 37.41252 | 142.58524 | 39727 ft | 403 kts | 205° |
| 2026-05-08 05:20 | 37.35979 | 142.56306 | 39716 ft | 399 kts | 205° |
| 2026-05-08 05:20 | 37.30674 | 142.54077 | 39721 ft | 402 kts | 205° |
| 2026-05-08 05:21 | 37.25406 | 142.51868 | 39718 ft | 401 kts | 205° |
| 2026-05-08 05:21 | 37.20095 | 142.49643 | 39717 ft | 402 kts | 205° |
| 2026-05-08 05:22 | 37.14813 | 142.47433 | 39713 ft | 401 kts | 205° |
| 2026-05-08 05:22 | 37.09987 | 142.45419 | 39713 ft | 400 kts | 205° |
| 2026-05-08 05:23 | 37.04660 | 142.43196 | 39711 ft | 403 kts | 205° |
| 2026-05-08 05:23 | 36.99338 | 142.40981 | 39711 ft | 401 kts | 205° |
| 2026-05-08 05:24 | 36.94132 | 142.38815 | 39710 ft | 402 kts | 205° |
| 2026-05-08 05:24 | 36.88786 | 142.36595 | 39718 ft | 405 kts | 205° |
| 2026-05-08 05:25 | 36.83462 | 142.34387 | 39734 ft | 406 kts | 204° |
| 2026-05-08 05:25 | 36.78095 | 142.32165 | 39745 ft | 405 kts | 204° |
| 2026-05-08 05:26 | 36.72774 | 142.29967 | 39737 ft | 403 kts | 204° |
| 2026-05-08 05:26 | 36.67450 | 142.27768 | 39741 ft | 405 kts | 204° |
| 2026-05-08 05:27 | 36.62147 | 142.25586 | 39446 ft | 396 kts | 204° |
| 2026-05-08 05:27 | 36.59549 | 142.24516 | 38709 ft | 396 kts | 204° |
| 2026-05-08 05:27 | 36.56925 | 142.23436 | 37930 ft | 396 kts | 204° |
| 2026-05-08 05:27 | 36.54317 | 142.22363 | 37204 ft | 396 kts | 204° |
| 2026-05-08 05:28 | 36.51725 | 142.21298 | 36502 ft | 396 kts | 204° |
| 2026-05-08 05:28 | 36.49116 | 142.20227 | 35786 ft | 396 kts | 204° |
| 2026-05-08 05:28 | 36.46511 | 142.19157 | 35045 ft | 396 kts | 204° |
| 2026-05-08 05:28 | 36.43883 | 142.18077 | 34265 ft | 411 kts | 204° |
| 2026-05-08 05:29 | 36.41103 | 142.16933 | 33419 ft | 423 kts | 204° |
| 2026-05-08 05:29 | 36.38308 | 142.15788 | 32550 ft | 424 kts | 204° |
| 2026-05-08 05:29 | 36.35543 | 142.14659 | 31649 ft | 425 kts | 204° |
| 2026-05-08 05:29 | 36.32729 | 142.13509 | 30747 ft | 425 kts | 204° |
| 2026-05-08 05:30 | 36.29936 | 142.12370 | 30067 ft | 419 kts | 204° |
| 2026-05-08 05:30 | 36.27206 | 142.11259 | 29553 ft | 411 kts | 204° |
| 2026-05-08 05:30 | 36.24509 | 142.10161 | 28988 ft | 405 kts | 204° |
| 2026-05-08 05:30 | 36.21868 | 142.09087 | 28403 ft | 399 kts | 204° |
| 2026-05-08 05:31 | 36.19246 | 142.08019 | 27812 ft | 394 kts | 204° |
| 2026-05-08 05:31 | 36.16627 | 142.06952 | 27207 ft | 400 kts | 204° |
| 2026-05-08 05:31 | 36.13954 | 142.05859 | 26572 ft | 406 kts | 204° |
| 2026-05-08 05:31 | 36.11306 | 142.04784 | 25939 ft | 403 kts | 204° |
| 2026-05-08 05:32 | 36.08660 | 142.03711 | 25304 ft | 397 kts | 204° |
| 2026-05-08 05:32 | 36.06036 | 142.02647 | 24678 ft | 392 kts | 204° |
| 2026-05-08 05:32 | 36.03488 | 142.01616 | 24074 ft | 387 kts | 204° |
| 2026-05-08 05:32 | 36.00922 | 142.00577 | 23452 ft | 382 kts | 204° |
| 2026-05-08 05:33 | 35.98405 | 141.99558 | 22830 ft | 378 kts | 204° |
| 2026-05-08 05:33 | 35.95945 | 141.98563 | 22244 ft | 373 kts | 204° |
| 2026-05-08 05:33 | 35.93482 | 141.97566 | 21648 ft | 370 kts | 204° |
| 2026-05-08 05:33 | 35.91071 | 141.96591 | 21022 ft | 367 kts | 204° |
| 2026-05-08 05:34 | 35.88673 | 141.95622 | 20393 ft | 364 kts | 204° |
| 2026-05-08 05:34 | 35.86267 | 141.94652 | 19775 ft | 360 kts | 204° |
| 2026-05-08 05:34 | 35.83928 | 141.93628 | 19123 ft | 354 kts | 209° |
| 2026-05-08 05:34 | 35.81899 | 141.91998 | 18479 ft | 345 kts | 224° |
| 2026-05-08 05:35 | 35.80404 | 141.89732 | 17863 ft | 341 kts | 238° |
| 2026-05-08 05:35 | 35.79439 | 141.87099 | 17260 ft | 340 kts | 248° |
| 2026-05-08 05:35 | 35.78811 | 141.84315 | 16614 ft | 340 kts | 253° |
| 2026-05-08 05:35 | 35.78359 | 141.81477 | 15959 ft | 338 kts | 257° |
| 2026-05-08 05:36 | 35.77990 | 141.78613 | 15322 ft | 336 kts | 257° |
| 2026-05-08 05:36 | 35.77696 | 141.75772 | 14848 ft | 331 kts | 262° |
| 2026-05-08 05:36 | 35.77615 | 141.72935 | 14760 ft | 336 kts | 264° |
| 2026-05-08 05:36 | 35.77554 | 141.70068 | 14739 ft | 335 kts | 264° |
| 2026-05-08 05:37 | 35.77496 | 141.67204 | 14740 ft | 336 kts | 264° |
| 2026-05-08 05:37 | 35.77438 | 141.64328 | 14746 ft | 335 kts | 264° |
| 2026-05-08 05:37 | 35.77378 | 141.61461 | 14742 ft | 335 kts | 264° |
| 2026-05-08 05:37 | 35.77318 | 141.58601 | 14734 ft | 335 kts | 264° |
| 2026-05-08 05:38 | 35.77259 | 141.55730 | 14717 ft | 335 kts | 264° |
| 2026-05-08 05:38 | 35.77200 | 141.52858 | 14723 ft | 336 kts | 264° |
| 2026-05-08 05:38 | 35.77139 | 141.50006 | 14633 ft | 337 kts | 264° |
| 2026-05-08 05:38 | 35.77078 | 141.47137 | 14354 ft | 335 kts | 264° |
| 2026-05-08 05:39 | 35.77014 | 141.44264 | 14073 ft | 334 kts | 264° |
| 2026-05-08 05:39 | 35.76949 | 141.41425 | 13798 ft | 333 kts | 264° |
| 2026-05-08 05:39 | 35.76884 | 141.38609 | 13538 ft | 332 kts | 264° |
| 2026-05-08 05:39 | 35.76818 | 141.35754 | 13273 ft | 331 kts | 264° |
| 2026-05-08 05:40 | 35.76752 | 141.32922 | 13022 ft | 329 kts | 264° |
| 2026-05-08 05:40 | 35.76688 | 141.30219 | 12774 ft | 328 kts | 264° |
| 2026-05-08 05:40 | 35.76621 | 141.27423 | 12505 ft | 327 kts | 264° |
| 2026-05-08 05:40 | 35.76552 | 141.24634 | 12252 ft | 325 kts | 264° |
| 2026-05-08 05:41 | 35.76490 | 141.22168 | 12023 ft | 325 kts | 264° |
| 2026-05-08 05:41 | 35.76436 | 141.20001 | 11813 ft | 323 kts | 264° |
| 2026-05-08 05:41 | 35.76416 | 141.17233 | 11562 ft | 324 kts | 266° |
| 2026-05-08 05:41 | 35.76427 | 141.14439 | 11299 ft | 322 kts | 266° |
| 2026-05-08 05:42 | 35.76450 | 141.11714 | 11034 ft | 322 kts | 269° |
| 2026-05-08 05:42 | 35.76850 | 141.09035 | 10813 ft | 317 kts | 282° |
| 2026-05-08 05:42 | 35.77710 | 141.06547 | 10630 ft | 308 kts | 289° |
| 2026-05-08 05:42 | 35.78635 | 141.04250 | 10444 ft | 296 kts | 289° |
| 2026-05-08 05:43 | 35.79545 | 141.02006 | 10252 ft | 285 kts | 289° |
| 2026-05-08 05:43 | 35.80299 | 141.00146 | 10088 ft | 277 kts | 289° |
| 2026-05-08 05:43 | 35.81152 | 140.98039 | 9896 ft | 271 kts | 289° |
| 2026-05-08 05:43 | 35.81989 | 140.95962 | 9710 ft | 271 kts | 289° |
| 2026-05-08 05:44 | 35.82821 | 140.93893 | 9517 ft | 271 kts | 289° |
| 2026-05-08 05:44 | 35.83657 | 140.91815 | 9325 ft | 271 kts | 289° |
| 2026-05-08 05:44 | 35.84499 | 140.89717 | 9126 ft | 271 kts | 289° |
| 2026-05-08 05:44 | 35.85330 | 140.87648 | 8929 ft | 270 kts | 289° |
| 2026-05-08 05:45 | 35.86165 | 140.85565 | 8728 ft | 271 kts | 290° |
| 2026-05-08 05:45 | 35.86993 | 140.83499 | 8546 ft | 268 kts | 289° |
| 2026-05-08 05:45 | 35.87811 | 140.81455 | 8412 ft | 269 kts | 290° |
| 2026-05-08 05:45 | 35.88639 | 140.79384 | 8282 ft | 268 kts | 290° |
| 2026-05-08 05:46 | 35.89468 | 140.77307 | 8162 ft | 268 kts | 290° |
| 2026-05-08 05:46 | 35.90293 | 140.75240 | 8031 ft | 268 kts | 290° |
| 2026-05-08 05:46 | 35.91112 | 140.73183 | 7922 ft | 268 kts | 290° |
| 2026-05-08 05:46 | 35.91937 | 140.71112 | 7781 ft | 268 kts | 290° |
| 2026-05-08 05:47 | 35.92758 | 140.69046 | 7639 ft | 267 kts | 290° |
| 2026-05-08 05:47 | 35.93554 | 140.67041 | 7501 ft | 267 kts | 290° |
| 2026-05-08 05:47 | 35.94364 | 140.64995 | 7366 ft | 267 kts | 290° |
| 2026-05-08 05:47 | 35.95177 | 140.62939 | 7254 ft | 266 kts | 290° |
| 2026-05-08 05:48 | 35.95987 | 140.60887 | 7139 ft | 266 kts | 290° |
| 2026-05-08 05:48 | 35.96800 | 140.58823 | 7003 ft | 266 kts | 291° |
| 2026-05-08 05:48 | 35.97612 | 140.56751 | 6845 ft | 266 kts | 291° |
| 2026-05-08 05:48 | 35.98457 | 140.54735 | 6724 ft | 268 kts | 298° |
| 2026-05-08 05:49 | 35.99555 | 140.52838 | 6607 ft | 270 kts | 302° |
| 2026-05-08 05:49 | 36.00687 | 140.50981 | 6485 ft | 270 kts | 302° |
| 2026-05-08 05:49 | 36.01831 | 140.49101 | 6363 ft | 270 kts | 302° |
| 2026-05-08 05:49 | 36.02949 | 140.47257 | 6243 ft | 270 kts | 302° |
| 2026-05-08 05:50 | 36.04076 | 140.45392 | 6117 ft | 269 kts | 302° |
| 2026-05-08 05:50 | 36.05184 | 140.43561 | 6000 ft | 268 kts | 302° |
| 2026-05-08 05:50 | 36.06302 | 140.41708 | 5951 ft | 269 kts | 302° |
| 2026-05-08 05:50 | 36.07386 | 140.39911 | 5944 ft | 270 kts | 302° |
| 2026-05-08 05:51 | 36.08517 | 140.38036 | 5938 ft | 271 kts | 303° |
| 2026-05-08 05:51 | 36.09639 | 140.36177 | 5939 ft | 266 kts | 302° |
| 2026-05-08 05:51 | 36.10726 | 140.34376 | 5934 ft | 254 kts | 302° |
| 2026-05-08 05:51 | 36.11647 | 140.32568 | 5924 ft | 245 kts | 287° |
| 2026-05-08 05:52 | 36.11953 | 140.30519 | 5928 ft | 239 kts | 270° |
| 2026-05-08 05:52 | 36.11987 | 140.28474 | 5929 ft | 239 kts | 267° |
| 2026-05-08 05:52 | 36.11980 | 140.26417 | 5928 ft | 238 kts | 266° |
| 2026-05-08 05:52 | 36.11964 | 140.24370 | 5907 ft | 238 kts | 266° |
| 2026-05-08 05:53 | 36.11943 | 140.22333 | 5763 ft | 236 kts | 264° |
| 2026-05-08 05:53 | 36.11556 | 140.20389 | 5573 ft | 234 kts | 242° |
| 2026-05-08 05:53 | 36.10558 | 140.18826 | 5408 ft | 233 kts | 220° |
| 2026-05-08 05:53 | 36.09114 | 140.17911 | 5246 ft | 234 kts | 197° |
| 2026-05-08 05:54 | 36.07484 | 140.17714 | 5098 ft | 236 kts | 185° |
| 2026-05-08 05:54 | 36.05837 | 140.17731 | 4937 ft | 238 kts | 178° |
| 2026-05-08 05:54 | 36.04223 | 140.18269 | 4782 ft | 242 kts | 163° |
| 2026-05-08 05:54 | 36.02673 | 140.19084 | 4635 ft | 242 kts | 160° |
| 2026-05-08 05:55 | 36.01164 | 140.19991 | 4506 ft | 241 kts | 158° |
| 2026-05-08 05:55 | 35.99701 | 140.20931 | 4380 ft | 234 kts | 157° |
| 2026-05-08 05:55 | 35.98282 | 140.21878 | 4254 ft | 228 kts | 156° |
| 2026-05-08 05:55 | 35.96911 | 140.22824 | 4145 ft | 225 kts | 156° |
| 2026-05-08 05:56 | 35.95543 | 140.23790 | 4047 ft | 227 kts | 155° |
| 2026-05-08 05:56 | 35.94161 | 140.24780 | 3754 ft | 229 kts | 155° |
| 2026-05-08 05:56 | 35.92777 | 140.25780 | 3472 ft | 226 kts | 155° |
| 2026-05-08 05:56 | 35.91502 | 140.26706 | 3208 ft | 201 kts | 157° |
| 2026-05-08 05:57 | 35.90339 | 140.27539 | 2972 ft | 188 kts | 157° |
| 2026-05-08 05:57 | 35.89226 | 140.28332 | 2746 ft | 181 kts | 158° |
| 2026-05-08 05:57 | 35.88131 | 140.29115 | 2520 ft | 180 kts | 157° |
| 2026-05-08 05:57 | 35.87051 | 140.29900 | 2292 ft | 180 kts | 157° |
| 2026-05-08 05:58 | 35.86004 | 140.30661 | 2061 ft | 169 kts | 157° |
| 2026-05-08 05:58 | 35.85032 | 140.31363 | 1852 ft | 159 kts | 158° |
| 2026-05-08 05:58 | 35.84089 | 140.32042 | 1645 ft | 155 kts | 158° |
| 2026-05-08 05:58 | 35.83138 | 140.32727 | 1444 ft | 156 kts | 157° |
| 2026-05-08 05:59 | 35.82220 | 140.33394 | 1235 ft | 148 kts | 158° |
| 2026-05-08 05:59 | 35.81361 | 140.34009 | 1042 ft | 142 kts | 157° |
| 2026-05-08 05:59 | 35.80508 | 140.34628 | 848 ft | 140 kts | 156° |
| 2026-05-08 05:59 | 35.79742 | 140.35181 | 670 ft | 138 kts | 155° |
| 2026-05-08 06:00 | 35.78905 | 140.35783 | 514 ft | 138 kts | 155° |
| 2026-05-08 06:00 | 35.78068 | 140.36383 | 320 ft | 139 kts | 154° |
| 2026-05-08 06:00 | 35.77214 | 140.36998 | 150 ft | 144 kts | 154° |
| 2026-05-08 06:00 | 35.76411 | 140.37573 | 139 ft | 120 kts | 153° |
| 2026-05-08 06:01 | 35.75742 | 140.38052 | 142 ft | 98 kts | 151° |
| 2026-05-08 06:01 | 35.75301 | 140.38377 | 145 ft | 47 kts | 139° |
| 2026-05-08 06:01 | 35.75152 | 140.38592 | 144 ft | 18 kts | 121° |
| 2026-05-08 06:01 | 35.75123 | 140.38690 | 142 ft | 12 kts | 70° |
| 2026-05-08 06:02 | 35.75203 | 140.38699 | 141 ft | 14 kts | 332° |
| 2026-05-08 06:02 | 35.75294 | 140.38634 | 141 ft | 15 kts | 329° |
| 2026-05-08 06:02 | 35.75391 | 140.38565 | 141 ft | 16 kts | 329° |
| 2026-05-08 06:02 | 35.75494 | 140.38490 | 141 ft | 17 kts | 329° |
| 2026-05-08 06:03 | 35.75602 | 140.38413 | 141 ft | 19 kts | 329° |
| 2026-05-08 06:03 | 35.75751 | 140.38304 | 141 ft | 30 kts | 330° |
| 2026-05-08 06:03 | 35.75951 | 140.38161 | 141 ft | 34 kts | 329° |
| 2026-05-08 06:03 | 35.76144 | 140.38020 | 141 ft | 29 kts | 329° |
| 2026-05-08 06:04 | 35.76322 | 140.37894 | 141 ft | 29 kts | 329° |
| 2026-05-08 06:04 | 35.76476 | 140.37782 | 141 ft | 15 kts | 329° |
| 2026-05-08 06:04 | 35.76520 | 140.37750 | 141 ft | 6 kts | 335° |
| 2026-05-08 06:04 | 35.76576 | 140.37790 | 141 ft | 13 kts | 59° |
| 2026-05-08 06:05 | 35.76626 | 140.37897 | 141 ft | 15 kts | 60° |
| 2026-05-08 06:05 | 35.76680 | 140.37997 | 141 ft | 8 kts | 42° |
| 2026-05-08 06:05 | 35.76720 | 140.38025 | 141 ft | 4 kts | 19° |
| 2026-05-08 06:05 | 35.76749 | 140.38036 | 141 ft | 6 kts | 15° |
| 2026-05-08 06:06 | 35.76785 | 140.38048 | 141 ft | 6 kts | 14° |
| 2026-05-08 06:06 | 35.76806 | 140.38054 | 141 ft | 0 kts | 14° |
| 2026-05-08 06:06 | 35.76807 | 140.38054 | 141 ft | 0 kts | 14° |